Observation data for Romero 11SSW on 02/22/2019      Previous  Date  Next       Current Mesonet Observations  Soil Data  Daily Summary Page  Observations in Plain Language
KBR1 220600Z 18002KT 04/M04 A2989 RMK A01 T00421043  RH  054%=      5-min Rain = 0
KBR1 220601Z 17003KT 04/M04 A2989 RMK A01 T00421043  RH  054%=      5-min Rain = 0
KBR1 220602Z 16002KT 04/M04 A2988 RMK A01 T00421043  RH  054%=      5-min Rain = 0
KBR1 220603Z 15000KT 04/M04 A2988 RMK A01 T00421043  RH  054%=      5-min Rain = 0
KBR1 220604Z 14003KT 04/M04 A2988 RMK A01 T00421043  RH  054%=      5-min Rain = 0
KBR1 220605Z 12003KT 04/M04 A2988 RMK A01 T00421043  RH  054%=      5-min Rain = 0
KBR1 220606Z 11003KT 04/M04 A2988 RMK A01 T00421044  RH  054%=      5-min Rain = 0
KBR1 220607Z 12003KT 04/M04 A2988 RMK A01 T00411044  RH  054%=      5-min Rain = 0
KBR1 220608Z 16004KT 04/M05 A2988 RMK A01 T00401045  RH  054%=      5-min Rain = 0
KBR1 220609Z 14003KT 04/M05 A2988 RMK A01 T00391045  RH  055%=      5-min Rain = 0
KBR1 220610Z 15004KT 04/M04 A2988 RMK A01 T00391044  RH  055%=      5-min Rain = 0
KBR1 220611Z 16003KT 04/M04 A2988 RMK A01 T00401043  RH  055%=      5-min Rain = 0
KBR1 220612Z 15003KT 04/M04 A2988 RMK A01 T00411043  RH  054%=      5-min Rain = 0
KBR1 220613Z 16003KT 04/M04 A2988 RMK A01 T00411043  RH  054%=      5-min Rain = 0
KBR1 220614Z 15005KT 04/M04 A2988 RMK A01 T00421043  RH  054%=      5-min Rain = 0
KBR1 220615Z 14005KT 04/M04 A2988 RMK A01 T00421044  RH  054%=      5-min Rain = 0
KBR1 220616Z 16004KT 04/M04 A2988 RMK A01 T00401044  RH  054%=      5-min Rain = 0
KBR1 220617Z 16006KT 04/M04 A2988 RMK A01 T00401044  RH  054%=      5-min Rain = 0
KBR1 220618Z 14007KT 04/M04 A2988 RMK A01 T00411044  RH  054%=      5-min Rain = 0
KBR1 220619Z 13008KT 04/M05 A2988 RMK A01 T00421045  RH  053%=      5-min Rain = 0
KBR1 220620Z 15008KT 04/M05 A2988 RMK A01 T00411045  RH  053%=      5-min Rain = 0
KBR1 220621Z 14007KT 04/M05 A2988 RMK A01 T00411046  RH  053%=      5-min Rain = 0
KBR1 220622Z 15007KT 04/M05 A2988 RMK A01 T00391046  RH  054%=      5-min Rain = 0
KBR1 220623Z 15006KT 04/M05 A2988 RMK A01 T00381046  RH  054%=      5-min Rain = 0
KBR1 220624Z 15007KT 04/M05 A2988 RMK A01 T00381046  RH  054%=      5-min Rain = 0
KBR1 220625Z 16009KT 04/M05 A2987 RMK A01 T00371046  RH  055%=      5-min Rain = 0
KBR1 220626Z 17008KT 04/M05 A2987 RMK A01 T00391045  RH  055%=      5-min Rain = 0
KBR1 220627Z 16008KT 04/M05 A2987 RMK A01 T00401045  RH  054%=      5-min Rain = 0
KBR1 220628Z 16009KT 04/M05 A2987 RMK A01 T00401045  RH  054%=      5-min Rain = 0
KBR1 220629Z 15008KT 04/M05 A2987 RMK A01 T00411045  RH  053%=      5-min Rain = 0
KBR1 220630Z 16009KT 04/M05 A2987 RMK A01 T00411045  RH  053%=      5-min Rain = 0
KBR1 220631Z 16008KT 04/M05 A2987 RMK A01 T00401046  RH  053%=      5-min Rain = 0
KBR1 220632Z 16010KT 04/M05 A2987 RMK A01 T00401046  RH  054%=      5-min Rain = 0
KBR1 220633Z 16009KT 04/M05 A2987 RMK A01 T00401046  RH  054%=      5-min Rain = 0
KBR1 220634Z 17010KT 04/M05 A2987 RMK A01 T00401046  RH  053%=      5-min Rain = 0
KBR1 220635Z 16010KT 04/M05 A2987 RMK A01 T00411046  RH  053%=      5-min Rain = 0
KBR1 220636Z 15009KT 04/M05 A2987 RMK A01 T00421047  RH  053%=      5-min Rain = 0
KBR1 220637Z 16011KT 04/M05 A2987 RMK A01 T00411047  RH  053%=      5-min Rain = 0
KBR1 220638Z 16011KT 04/M05 A2987 RMK A01 T00411047  RH  053%=      5-min Rain = 0
KBR1 220639Z 16011KT 04/M05 A2987 RMK A01 T00411047  RH  053%=      5-min Rain = 0
KBR1 220640Z 15008KT 04/M05 A2987 RMK A01 T00401047  RH  053%=      5-min Rain = 0
KBR1 220641Z 16008KT 04/M05 A2987 RMK A01 T00391048  RH  053%=      5-min Rain = 0
KBR1 220642Z 14008KT 04/M05 A2987 RMK A01 T00391047  RH  053%=      5-min Rain = 0
KBR1 220643Z 14007KT 04/M05 A2987 RMK A01 T00391047  RH  053%=      5-min Rain = 0
KBR1 220644Z 14006KT 04/M05 A2986 RMK A01 T00381047  RH  054%=      5-min Rain = 0
KBR1 220645Z 14007KT 04/M05 A2986 RMK A01 T00371048  RH  054%=      5-min Rain = 0
KBR1 220646Z 13006KT 04/M05 A2986 RMK A01 T00371047  RH  054%=      5-min Rain = 0
KBR1 220647Z 13006KT 04/M05 A2986 RMK A01 T00361048  RH  054%=      5-min Rain = 0
KBR1 220648Z 14006KT 04/M05 A2987 RMK A01 T00361047  RH  055%=      5-min Rain = 0
KBR1 220649Z 13006KT 04/M05 A2987 RMK A01 T00361047  RH  054%=      5-min Rain = 0
KBR1 220650Z 12005KT 04/M05 A2987 RMK A01 T00381047  RH  054%=      5-min Rain = 0
KBR1 220651Z 10004KT 04/M05 A2987 RMK A01 T00371047  RH  054%=      5-min Rain = 0
KBR1 220652Z 08003KT 04/M05 A2987 RMK A01 T00371047  RH  054%=      5-min Rain = 0
KBR1 220653Z 09003KT 04/M05 A2987 RMK A01 T00361047  RH  054%=      5-min Rain = 0
KBR1 220654Z 06002KT 04/M05 A2987 RMK A01 T00361047  RH  055%=      5-min Rain = 0
KBR1 220655Z 03003KT 04/M05 A2987 RMK A01 T00351047  RH  055%=      5-min Rain = 0
KBR1 220656Z 03003KT 03/M05 A2988 RMK A01 T00341047  RH  055%=      5-min Rain = 0
KBR1 220657Z 03004KT 03/M05 A2988 RMK A01 T00341046  RH  056%=      5-min Rain = 0
KBR1 220658Z 04004KT 03/M05 A2988 RMK A01 T00341046  RH  056%=      5-min Rain = 0
KBR1 220659Z 03004KT 03/M05 A2988 RMK A01 T00341046  RH  056%=      5-min Rain = 0
KBR1 220700Z 03005KT 03/M05 A2988 RMK A01 T00341046  RH  056%=      5-min Rain = 0
KBR1 220701Z 03005KT 03/M05 A2988 RMK A01 T00331046  RH  056%=      5-min Rain = 0
KBR1 220702Z 03005KT 03/M05 A2988 RMK A01 T00331047  RH  056%=      5-min Rain = 0
KBR1 220703Z 04005KT 03/M05 A2988 RMK A01 T00331047  RH  056%=      5-min Rain = 0
KBR1 220704Z 04005KT 03/M05 A2988 RMK A01 T00341047  RH  056%=      5-min Rain = 0
KBR1 220705Z 06004KT 03/M05 A2988 RMK A01 T00341047  RH  055%=      5-min Rain = 0
KBR1 220706Z 08005KT 03/M05 A2988 RMK A01 T00341048  RH  055%=      5-min Rain = 0
KBR1 220707Z 08004KT 04/M05 A2988 RMK A01 T00351048  RH  055%=      5-min Rain = 0
KBR1 220708Z 10005KT 04/M05 A2988 RMK A01 T00351048  RH  055%=      5-min Rain = 0
KBR1 220709Z 10005KT 04/M05 A2988 RMK A01 T00351048  RH  055%=      5-min Rain = 0
KBR1 220710Z 10005KT 04/M05 A2988 RMK A01 T00351048  RH  055%=      5-min Rain = 0
KBR1 220711Z 12006KT 03/M05 A2988 RMK A01 T00341048  RH  055%=      5-min Rain = 0
KBR1 220712Z 12008KT 04/M05 A2988 RMK A01 T00351048  RH  055%=      5-min Rain = 0
KBR1 220713Z 12008KT 04/M05 A2988 RMK A01 T00351048  RH  055%=      5-min Rain = 0
KBR1 220714Z 13008KT 04/M05 A2988 RMK A01 T00361048  RH  054%=      5-min Rain = 0
KBR1 220715Z 14008KT 04/M05 A2988 RMK A01 T00361048  RH  054%=      5-min Rain = 0
KBR1 220716Z 14006KT 04/M05 A2988 RMK A01 T00361048  RH  054%=      5-min Rain = 0
KBR1 220717Z 13008KT 04/M05 A2988 RMK A01 T00371048  RH  054%=      5-min Rain = 0
KBR1 220718Z 14008KT 04/M05 A2988 RMK A01 T00371048  RH  054%=      5-min Rain = 0
KBR1 220719Z 13008KT 04/M05 A2988 RMK A01 T00361048  RH  054%=      5-min Rain = 0
KBR1 220720Z 14011KT 04/M05 A2988 RMK A01 T00361048  RH  054%=      5-min Rain = 0
KBR1 220721Z 14010KT 04/M05 A2988 RMK A01 T00361048  RH  054%=      5-min Rain = 0
KBR1 220722Z 14011KT 04/M05 A2988 RMK A01 T00371048  RH  054%=      5-min Rain = 0
KBR1 220723Z 15010KT 04/M05 A2988 RMK A01 T00381049  RH  053%=      5-min Rain = 0
KBR1 220724Z 15009KT 04/M05 A2988 RMK A01 T00381049  RH  053%=      5-min Rain = 0
KBR1 220725Z 15009KT 04/M05 A2988 RMK A01 T00391049  RH  053%=      5-min Rain = 0
KBR1 220726Z 15010KT 04/M05 A2988 RMK A01 T00381049  RH  053%=      5-min Rain = 0
KBR1 220727Z 14010KT 04/M05 A2988 RMK A01 T00391049  RH  053%=      5-min Rain = 0
KBR1 220728Z 15009KT 04/M05 A2988 RMK A01 T00391049  RH  053%=      5-min Rain = 0
KBR1 220729Z 14008KT 04/M05 A2988 RMK A01 T00381050  RH  053%=      5-min Rain = 0
KBR1 220730Z 14008KT 04/M05 A2988 RMK A01 T00371050  RH  053%=      5-min Rain = 0
KBR1 220731Z 14008KT 04/M05 A2988 RMK A01 T00361050  RH  053%=      5-min Rain = 0
KBR1 220732Z 13008KT 04/M05 A2988 RMK A01 T00361050  RH  053%=      5-min Rain = 0
KBR1 220733Z 13007KT 04/M05 A2988 RMK A01 T00361049  RH  054%=      5-min Rain = 0
KBR1 220734Z 13007KT 04/M05 A2987 RMK A01 T00351049  RH  054%=      5-min Rain = 0
KBR1 220735Z 13007KT 03/M05 A2987 RMK A01 T00341049  RH  054%=      5-min Rain = 0
KBR1 220736Z 13008KT 03/M05 A2987 RMK A01 T00341050  RH  054%=      5-min Rain = 0
KBR1 220737Z 13007KT 03/M05 A2987 RMK A01 T00341049  RH  055%=      5-min Rain = 0
KBR1 220738Z 12008KT 03/M05 A2987 RMK A01 T00341050  RH  054%=      5-min Rain = 0
KBR1 220739Z 12008KT 03/M05 A2987 RMK A01 T00341050  RH  054%=      5-min Rain = 0
KBR1 220740Z 12008KT 04/M05 A2987 RMK A01 T00351050  RH  054%=      5-min Rain = 0
KBR1 220741Z 12007KT 04/M05 A2987 RMK A01 T00351050  RH  054%=      5-min Rain = 0
KBR1 220742Z 12007KT 03/M05 A2987 RMK A01 T00341050  RH  054%=      5-min Rain = 0
KBR1 220743Z 12007KT 03/M05 A2988 RMK A01 T00331050  RH  054%=      5-min Rain = 0
KBR1 220744Z 13007KT 03/M05 A2988 RMK A01 T00331050  RH  054%=      5-min Rain = 0
KBR1 220745Z 13006KT 03/M05 A2988 RMK A01 T00321050  RH  055%=      5-min Rain = 0
KBR1 220746Z 13005KT 03/M05 A2988 RMK A01 T00321050  RH  055%=      5-min Rain = 0
KBR1 220747Z 13005KT 03/M05 A2988 RMK A01 T00311051  RH  055%=      5-min Rain = 0
KBR1 220748Z 12004KT 03/M05 A2988 RMK A01 T00311051  RH  055%=      5-min Rain = 0
KBR1 220749Z 12004KT 03/M05 A2988 RMK A01 T00301052  RH  055%=      5-min Rain = 0
KBR1 220750Z 12005KT 03/M05 A2988 RMK A01 T00301052  RH  055%=      5-min Rain = 0
KBR1 220751Z 11005KT 03/M05 A2988 RMK A01 T00301051  RH  055%=      5-min Rain = 0
KBR1 220752Z 11005KT 03/M05 A2988 RMK A01 T00301051  RH  055%=      5-min Rain = 0
KBR1 220753Z 10005KT 03/M05 A2988 RMK A01 T00291051  RH  055%=      5-min Rain = 0
KBR1 220754Z 10004KT 03/M05 A2988 RMK A01 T00291051  RH  056%=      5-min Rain = 0
KBR1 220755Z 10005KT 03/M05 A2988 RMK A01 T00281051  RH  056%=      5-min Rain = 0
KBR1 220756Z 10005KT 03/M05 A2988 RMK A01 T00271052  RH  056%=      5-min Rain = 0
KBR1 220757Z 11005KT 03/M05 A2988 RMK A01 T00271052  RH  056%=      5-min Rain = 0
KBR1 220758Z 11005KT 03/M05 A2988 RMK A01 T00261052  RH  056%=      5-min Rain = 0
KBR1 220759Z 11005KT 03/M05 A2988 RMK A01 T00261052  RH  056%=      5-min Rain = 0
KBR1 220800Z 12005KT 03/M05 A2988 RMK A01 T00251052  RH  057%=      5-min Rain = 0
KBR1 220801Z 12005KT 02/M05 A2988 RMK A01 T00241053  RH  057%=      5-min Rain = 0
KBR1 220802Z 13005KT 02/M05 A2988 RMK A01 T00241052  RH  057%=      5-min Rain = 0
KBR1 220803Z 12006KT 02/M05 A2988 RMK A01 T00241051  RH  058%=      5-min Rain = 0
KBR1 220804Z 12006KT 02/M05 A2988 RMK A01 T00241051  RH  058%=      5-min Rain = 0
KBR1 220805Z 12005KT 02/M05 A2987 RMK A01 T00241050  RH  058%=      5-min Rain = 0
KBR1 220806Z 12005KT 03/M05 A2987 RMK A01 T00251050  RH  058%=      5-min Rain = 0
KBR1 220807Z 11004KT 03/M05 A2988 RMK A01 T00251050  RH  058%=      5-min Rain = 0
KBR1 220808Z 10005KT 03/M05 A2988 RMK A01 T00251050  RH  058%=      5-min Rain = 0
KBR1 220809Z 11004KT 02/M05 A2988 RMK A01 T00241050  RH  058%=      5-min Rain = 0
KBR1 220810Z 11004KT 02/M05 A2988 RMK A01 T00231051  RH  058%=      5-min Rain = 0
KBR1 220811Z 10004KT 02/M05 A2988 RMK A01 T00231050  RH  058%=      5-min Rain = 0
KBR1 220812Z 10004KT 02/M05 A2988 RMK A01 T00221051  RH  059%=      5-min Rain = 0
KBR1 220813Z 09003KT 02/M05 A2988 RMK A01 T00221051  RH  059%=      5-min Rain = 0
KBR1 220814Z 08003KT 02/M05 A2988 RMK A01 T00211051  RH  059%=      5-min Rain = 0
KBR1 220815Z 08004KT 02/M05 A2988 RMK A01 T00201051  RH  059%=      5-min Rain = 0
KBR1 220816Z 09003KT 02/M05 A2988 RMK A01 T00201051  RH  059%=      5-min Rain = 0
KBR1 220817Z 09003KT 02/M05 A2988 RMK A01 T00201050  RH  060%=      5-min Rain = 0
KBR1 220818Z 08003KT 02/M05 A2988 RMK A01 T00191050  RH  060%=      5-min Rain = 0
KBR1 220819Z 08004KT 02/M05 A2988 RMK A01 T00191050  RH  060%=      5-min Rain = 0
KBR1 220820Z 08004KT 02/M05 A2988 RMK A01 T00191050  RH  060%=      5-min Rain = 0
KBR1 220821Z 08004KT 02/M05 A2989 RMK A01 T00191050  RH  060%=      5-min Rain = 0
KBR1 220822Z 08004KT 02/M05 A2989 RMK A01 T00191050  RH  060%=      5-min Rain = 0
KBR1 220823Z 09005KT 02/M05 A2989 RMK A01 T00191050  RH  060%=      5-min Rain = 0
KBR1 220824Z 09005KT 02/M05 A2989 RMK A01 T00191050  RH  060%=      5-min Rain = 0
KBR1 220825Z 10005KT 02/M05 A2989 RMK A01 T00191050  RH  060%=      5-min Rain = 0
KBR1 220826Z 09005KT 02/M05 A2989 RMK A01 T00201050  RH  060%=      5-min Rain = 0
KBR1 220827Z 10005KT 02/M05 A2989 RMK A01 T00211050  RH  060%=      5-min Rain = 0
KBR1 220828Z 10005KT 02/M05 A2989 RMK A01 T00211049  RH  060%=      5-min Rain = 0
KBR1 220829Z 11005KT 02/M05 A2989 RMK A01 T00221049  RH  059%=      5-min Rain = 0
KBR1 220830Z 11006KT 02/M05 A2989 RMK A01 T00231049  RH  059%=      5-min Rain = 0
KBR1 220831Z 11006KT 02/M05 A2989 RMK A01 T00241048  RH  059%=      5-min Rain = 0
KBR1 220832Z 11007KT 02/M05 A2988 RMK A01 T00241048  RH  059%=      5-min Rain = 0
KBR1 220833Z 11008KT 02/M05 A2988 RMK A01 T00241048  RH  059%=      5-min Rain = 0
KBR1 220834Z 11009KT 03/M05 A2988 RMK A01 T00251048  RH  059%=      5-min Rain = 0
KBR1 220835Z 12009KT 03/M05 A2988 RMK A01 T00261048  RH  058%=      5-min Rain = 0
KBR1 220836Z 12008KT 03/M05 A2988 RMK A01 T00261048  RH  058%=      5-min Rain = 0
KBR1 220837Z 12009KT 03/M05 A2988 RMK A01 T00271048  RH  058%=      5-min Rain = 0
KBR1 220838Z 12008KT 03/M05 A2988 RMK A01 T00271047  RH  058%=      5-min Rain = 0
KBR1 220839Z 12009KT 03/M05 A2987 RMK A01 T00281047  RH  058%=      5-min Rain = 0
KBR1 220840Z 12009KT 03/M05 A2987 RMK A01 T00281047  RH  058%=      5-min Rain = 0
KBR1 220841Z 11008KT 03/M05 A2987 RMK A01 T00281047  RH  058%=      5-min Rain = 0
KBR1 220842Z 11008KT 03/M05 A2987 RMK A01 T00291047  RH  058%=      5-min Rain = 0
KBR1 220843Z 11008KT 03/M05 A2987 RMK A01 T00281047  RH  058%=      5-min Rain = 0
KBR1 220844Z 10008KT 03/M05 A2987 RMK A01 T00281047  RH  058%=      5-min Rain = 0
KBR1 220845Z 10008KT 03/M05 A2987 RMK A01 T00281047  RH  058%=      5-min Rain = 0
KBR1 220846Z 09007KT 03/M05 A2987 RMK A01 T00281047  RH  058%=      5-min Rain = 0
KBR1 220847Z 08007KT 03/M05 A2987 RMK A01 T00281046  RH  058%=      5-min Rain = 0
KBR1 220848Z 07006KT 03/M05 A2987 RMK A01 T00281047  RH  058%=      5-min Rain = 0
KBR1 220849Z 07006KT 03/M05 A2988 RMK A01 T00281046  RH  058%=      5-min Rain = 0
KBR1 220850Z 06006KT 03/M05 A2988 RMK A01 T00271047  RH  058%=      5-min Rain = 0
KBR1 220851Z 05006KT 03/M05 A2988 RMK A01 T00271046  RH  058%=      5-min Rain = 0
KBR1 220852Z 05005KT 03/M05 A2988 RMK A01 T00271046  RH  059%=      5-min Rain = 0
KBR1 220853Z 05006KT 03/M05 A2988 RMK A01 T00261047  RH  059%=      5-min Rain = 0
KBR1 220854Z 06007KT 03/M05 A2988 RMK A01 T00251047  RH  059%=      5-min Rain = 0
KBR1 220855Z 06007KT 02/M05 A2988 RMK A01 T00241047  RH  059%=      5-min Rain = 0
KBR1 220856Z 07007KT 02/M05 A2988 RMK A01 T00241047  RH  059%=      5-min Rain = 0
KBR1 220857Z 07007KT 02/M05 A2988 RMK A01 T00241046  RH  060%=      5-min Rain = 0
KBR1 220858Z 08007KT 02/M05 A2987 RMK A01 T00241046  RH  060%=      5-min Rain = 0
KBR1 220859Z 09006KT 02/M05 A2987 RMK A01 T00241046  RH  060%=      5-min Rain = 0
KBR1 220900Z 09007KT 02/M05 A2987 RMK A01 T00241046  RH  060%=      5-min Rain = 0
KBR1 220901Z 09007KT 02/M05 A2987 RMK A01 T00241046  RH  060%=      5-min Rain = 0
KBR1 220902Z 10007KT 02/M05 A2987 RMK A01 T00241046  RH  060%=      5-min Rain = 0
KBR1 220903Z 10008KT 02/M05 A2987 RMK A01 T00241046  RH  060%=      5-min Rain = 0
KBR1 220904Z 10009KT 03/M05 A2987 RMK A01 T00251046  RH  060%=      5-min Rain = 0
KBR1 220905Z 11010KT 03/M05 A2986 RMK A01 T00251046  RH  060%=      5-min Rain = 0
KBR1 220906Z 11010KT 03/M05 A2986 RMK A01 T00251046  RH  060%=      5-min Rain = 0
KBR1 220907Z 11010KT 03/M05 A2986 RMK A01 T00251046  RH  060%=      5-min Rain = 0
KBR1 220908Z 11011KT 03/M05 A2986 RMK A01 T00251046  RH  060%=      5-min Rain = 0
KBR1 220909Z 11011KT 03/M05 A2986 RMK A01 T00251045  RH  060%=      5-min Rain = 0
KBR1 220910Z 12012KT 03/M05 A2986 RMK A01 T00261045  RH  060%=      5-min Rain = 0
KBR1 220911Z 12011KT 03/M05 A2986 RMK A01 T00261045  RH  060%=      5-min Rain = 0
KBR1 220912Z 12012KT 03/M05 A2986 RMK A01 T00261045  RH  060%=      5-min Rain = 0
KBR1 220913Z 12011KT 03/M04 A2986 RMK A01 T00261044  RH  060%=      5-min Rain = 0
KBR1 220914Z 11011KT 03/M04 A2986 RMK A01 T00261044  RH  060%=      5-min Rain = 0
KBR1 220915Z 10011KT 03/M04 A2986 RMK A01 T00261044  RH  060%=      5-min Rain = 0
KBR1 220916Z 10010KT 03/M04 A2986 RMK A01 T00261044  RH  060%=      5-min Rain = 0
KBR1 220917Z 10010KT 03/M04 A2986 RMK A01 T00261044  RH  060%=      5-min Rain = 0
KBR1 220918Z 10010KT 03/M04 A2986 RMK A01 T00261044  RH  060%=      5-min Rain = 0
KBR1 220919Z 10010KT 03/M04 A2986 RMK A01 T00261044  RH  060%=      5-min Rain = 0
KBR1 220920Z 11008KT 03/M04 A2986 RMK A01 T00261043  RH  060%=      5-min Rain = 0
KBR1 220921Z 10007KT 03/M04 A2987 RMK A01 T00251042  RH  061%=      5-min Rain = 0
KBR1 220922Z 09008KT 03/M04 A2987 RMK A01 T00251042  RH  062%=      5-min Rain = 0
KBR1 220923Z 09007KT 03/M04 A2987 RMK A01 T00251041  RH  062%=      5-min Rain = 0
KBR1 220924Z 08006KT 03/M04 A2987 RMK A01 T00251041  RH  062%=      5-min Rain = 0
KBR1 220925Z 08006KT 03/M04 A2987 RMK A01 T00251041  RH  062%=      5-min Rain = 0
KBR1 220926Z 08006KT 02/M04 A2987 RMK A01 T00241041  RH  062%=      5-min Rain = 0
KBR1 220927Z 08006KT 02/M04 A2987 RMK A01 T00241041  RH  062%=      5-min Rain = 0
KBR1 220928Z 08004KT 03/M04 A2987 RMK A01 T00251041  RH  062%=      5-min Rain = 0
KBR1 220929Z 07005KT 03/M04 A2987 RMK A01 T00251041  RH  062%=      5-min Rain = 0
KBR1 220930Z 06006KT 03/M04 A2987 RMK A01 T00251041  RH  062%=      5-min Rain = 0
KBR1 220931Z 07006KT 03/M04 A2987 RMK A01 T00251041  RH  062%=      5-min Rain = 0
KBR1 220932Z 07005KT 03/M04 A2987 RMK A01 T00251041  RH  062%=      5-min Rain = 0
KBR1 220933Z 06004KT 03/M04 A2987 RMK A01 T00261041  RH  061%=      5-min Rain = 0
KBR1 220934Z 06005KT 03/M04 A2987 RMK A01 T00261041  RH  061%=      5-min Rain = 0
KBR1 220935Z 06004KT 03/M04 A2987 RMK A01 T00251041  RH  062%=      5-min Rain = 0
KBR1 220936Z 07005KT 02/M04 A2987 RMK A01 T00241041  RH  062%=      5-min Rain = 0
KBR1 220937Z 08006KT 02/M04 A2987 RMK A01 T00241042  RH  062%=      5-min Rain = 0
KBR1 220938Z 08006KT 02/M04 A2988 RMK A01 T00241042  RH  062%=      5-min Rain = 0
KBR1 220939Z 09007KT 02/M04 A2988 RMK A01 T00231042  RH  062%=      5-min Rain = 0
KBR1 220940Z 09006KT 02/M04 A2988 RMK A01 T00231042  RH  062%=      5-min Rain = 0
KBR1 220941Z 10007KT 02/M04 A2987 RMK A01 T00231042  RH  062%=      5-min Rain = 0
KBR1 220942Z 11008KT 02/M04 A2987 RMK A01 T00231042  RH  062%=      5-min Rain = 0
KBR1 220943Z 11008KT 02/M04 A2987 RMK A01 T00231042  RH  062%=      5-min Rain = 0
KBR1 220944Z 12009KT 02/M04 A2987 RMK A01 T00231042  RH  062%=      5-min Rain = 0
KBR1 220945Z 12009KT 02/M04 A2987 RMK A01 T00221042  RH  063%=      5-min Rain = 0
KBR1 220946Z 13008KT 02/M04 A2987 RMK A01 T00221042  RH  063%=      5-min Rain = 0
KBR1 220947Z 13010KT 02/M04 A2987 RMK A01 T00221041  RH  063%=      5-min Rain = 0
KBR1 220948Z 13009KT 02/M04 A2987 RMK A01 T00221041  RH  063%=      5-min Rain = 0
KBR1 220949Z 13010KT 02/M04 A2987 RMK A01 T00221041  RH  063%=      5-min Rain = 0
KBR1 220950Z 12009KT 02/M04 A2987 RMK A01 T00231040  RH  063%=      5-min Rain = 0
KBR1 220951Z 12008KT 02/M04 A2987 RMK A01 T00231040  RH  063%=      5-min Rain = 0
KBR1 220952Z 12007KT 02/M04 A2987 RMK A01 T00241039  RH  063%=      5-min Rain = 0
KBR1 220953Z 12008KT 02/M04 A2987 RMK A01 T00241039  RH  063%=      5-min Rain = 0
KBR1 220954Z 12007KT 03/M04 A2987 RMK A01 T00251038  RH  063%=      5-min Rain = 0
KBR1 220955Z 11005KT 03/M04 A2987 RMK A01 T00251039  RH  063%=      5-min Rain = 0
KBR1 220956Z 09004KT 03/M04 A2987 RMK A01 T00251039  RH  063%=      5-min Rain = 0
KBR1 220957Z 10006KT 03/M04 A2987 RMK A01 T00251038  RH  063%=      5-min Rain = 0
KBR1 220958Z 11006KT 03/M04 A2987 RMK A01 T00251038  RH  063%=      5-min Rain = 0
KBR1 220959Z 11006KT 03/M04 A2988 RMK A01 T00251037  RH  063%=      5-min Rain = 0
KBR1 221000Z 11006KT 03/M04 A2988 RMK A01 T00261037  RH  063%=      5-min Rain = 0
KBR1 221001Z 10004KT 03/M04 A2988 RMK A01 T00271037  RH  063%=      5-min Rain = 0
KBR1 221002Z 09004KT 03/M04 A2988 RMK A01 T00271037  RH  063%=      5-min Rain = 0
KBR1 221003Z 08003KT 03/M04 A2988 RMK A01 T00271037  RH  063%=      5-min Rain = 0
KBR1 221004Z 09004KT 03/M04 A2988 RMK A01 T00271036  RH  063%=      5-min Rain = 0
KBR1 221005Z 09005KT 03/M04 A2988 RMK A01 T00271036  RH  063%=      5-min Rain = 0
KBR1 221006Z 08005KT 03/M04 A2988 RMK A01 T00271036  RH  063%=      5-min Rain = 0
KBR1 221007Z 05005KT 03/M04 A2988 RMK A01 T00271036  RH  063%=      5-min Rain = 0
KBR1 221008Z 06003KT 03/M04 A2988 RMK A01 T00261036  RH  063%=      5-min Rain = 0
KBR1 221009Z 06004KT 03/M04 A2988 RMK A01 T00261037  RH  063%=      5-min Rain = 0
KBR1 221010Z 06003KT 03/M04 A2988 RMK A01 T00251038  RH  063%=      5-min Rain = 0
KBR1 221011Z 07004KT 02/M04 A2988 RMK A01 T00241039  RH  063%=      5-min Rain = 0
KBR1 221012Z 08003KT 02/M04 A2989 RMK A01 T00241039  RH  063%=      5-min Rain = 0
KBR1 221013Z 08004KT 02/M04 A2989 RMK A01 T00231039  RH  063%=      5-min Rain = 0
KBR1 221014Z 07004KT 02/M04 A2988 RMK A01 T00231039  RH  064%=      5-min Rain = 0
KBR1 221015Z 07005KT 02/M04 A2988 RMK A01 T00231038  RH  064%=      5-min Rain = 0
KBR1 221016Z 08004KT 02/M04 A2988 RMK A01 T00231039  RH  064%=      5-min Rain = 0
KBR1 221017Z 08005KT 02/M04 A2988 RMK A01 T00221039  RH  064%=      5-min Rain = 0
KBR1 221018Z 10004KT 02/M04 A2988 RMK A01 T00221039  RH  064%=      5-min Rain = 0
KBR1 221019Z 11005KT 02/M04 A2988 RMK A01 T00221039  RH  064%=      5-min Rain = 0
KBR1 221020Z 12005KT 02/M04 A2988 RMK A01 T00221039  RH  064%=      5-min Rain = 0
KBR1 221021Z 11005KT 02/M04 A2988 RMK A01 T00211040  RH  064%=      5-min Rain = 0
KBR1 221022Z 11005KT 02/M04 A2988 RMK A01 T00211040  RH  064%=      5-min Rain = 0
KBR1 221023Z 11006KT 02/M04 A2988 RMK A01 T00211039  RH  065%=      5-min Rain = 0
KBR1 221024Z 12006KT 02/M04 A2988 RMK A01 T00211038  RH  065%=      5-min Rain = 0
KBR1 221025Z 13006KT 02/M04 A2988 RMK A01 T00211038  RH  065%=      5-min Rain = 0
KBR1 221026Z 13007KT 02/M04 A2988 RMK A01 T00211038  RH  065%=      5-min Rain = 0
KBR1 221027Z 12008KT 02/M04 A2988 RMK A01 T00211037  RH  066%=      5-min Rain = 0
KBR1 221028Z 12008KT 02/M04 A2987 RMK A01 T00211036  RH  066%=      5-min Rain = 0
KBR1 221029Z 11009KT 02/M04 A2987 RMK A01 T00211035  RH  066%=      5-min Rain = 0
KBR1 221030Z 11010KT 02/M04 A2987 RMK A01 T00221035  RH  066%=      5-min Rain = 0
KBR1 221031Z 12009KT 02/M04 A2987 RMK A01 T00221035  RH  066%=      5-min Rain = 0
KBR1 221032Z 11009KT 02/M04 A2987 RMK A01 T00221035  RH  066%=      5-min Rain = 0
KBR1 221033Z 11009KT 02/M04 A2987 RMK A01 T00221035  RH  066%=      5-min Rain = 0
KBR1 221034Z 11008KT 02/M04 A2987 RMK A01 T00221035  RH  066%=      5-min Rain = 0
KBR1 221035Z 10008KT 02/M04 A2987 RMK A01 T00221035  RH  066%=      5-min Rain = 0
KBR1 221036Z 10008KT 02/M04 A2987 RMK A01 T00221035  RH  066%=      5-min Rain = 0
KBR1 221037Z 10008KT 02/M03 A2987 RMK A01 T00211034  RH  067%=      5-min Rain = 0
KBR1 221038Z 11009KT 02/M04 A2987 RMK A01 T00211035  RH  067%=      5-min Rain = 0
KBR1 221039Z 10008KT 02/M03 A2987 RMK A01 T00211034  RH  067%=      5-min Rain = 0
KBR1 221040Z 10008KT 02/M03 A2988 RMK A01 T00211034  RH  067%=      5-min Rain = 0
KBR1 221041Z 11008KT 02/M03 A2988 RMK A01 T00211034  RH  067%=      5-min Rain = 0
KBR1 221042Z 10008KT 02/M03 A2988 RMK A01 T00211034  RH  067%=      5-min Rain = 0
KBR1 221043Z 10008KT 02/M03 A2988 RMK A01 T00211034  RH  067%=      5-min Rain = 0
KBR1 221044Z 10008KT 02/M03 A2988 RMK A01 T00211034  RH  067%=      5-min Rain = 0
KBR1 221045Z 10008KT 02/M03 A2988 RMK A01 T00211033  RH  067%=      5-min Rain = 0
KBR1 221046Z 10007KT 02/M03 A2988 RMK A01 T00201033  RH  068%=      5-min Rain = 0
KBR1 221047Z 10007KT 02/M03 A2988 RMK A01 T00201033  RH  068%=      5-min Rain = 0
KBR1 221048Z 10007KT 02/M03 A2988 RMK A01 T00201034  RH  068%=      5-min Rain = 0
KBR1 221049Z 10006KT 02/M03 A2988 RMK A01 T00191034  RH  068%=      5-min Rain = 0
KBR1 221050Z 10006KT 02/M03 A2988 RMK A01 T00191033  RH  068%=      5-min Rain = 0
KBR1 221051Z 10007KT 02/M03 A2988 RMK A01 T00191033  RH  068%=      5-min Rain = 0
KBR1 221052Z 11007KT 02/M03 A2988 RMK A01 T00181033  RH  069%=      5-min Rain = 0
KBR1 221053Z 11007KT 02/M03 A2988 RMK A01 T00181033  RH  069%=      5-min Rain = 0
KBR1 221054Z 11008KT 02/M03 A2988 RMK A01 T00181033  RH  069%=      5-min Rain = 0
KBR1 221055Z 11008KT 02/M03 A2987 RMK A01 T00171033  RH  069%=      5-min Rain = 0
KBR1 221056Z 11008KT 02/M03 A2987 RMK A01 T00171033  RH  069%=      5-min Rain = 0
KBR1 221057Z 11008KT 02/M03 A2987 RMK A01 T00161033  RH  070%=      5-min Rain = 0
KBR1 221058Z 11007KT 02/M03 A2987 RMK A01 T00161033  RH  070%=      5-min Rain = 0
KBR1 221059Z 11007KT 02/M03 A2987 RMK A01 T00161033  RH  070%=      5-min Rain = 0
KBR1 221100Z 12005KT 02/M03 A2987 RMK A01 T00151033  RH  070%=      5-min Rain = 0
KBR1 221101Z 12005KT 02/M03 A2987 RMK A01 T00151033  RH  071%=      5-min Rain = 0
KBR1 221102Z 12005KT 01/M03 A2988 RMK A01 T00141033  RH  071%=      5-min Rain = 0
KBR1 221103Z 12006KT 01/M03 A2987 RMK A01 T00141032  RH  071%=      5-min Rain = 0
KBR1 221104Z 11008KT 01/M03 A2987 RMK A01 T00141033  RH  071%=      5-min Rain = 0
KBR1 221105Z 11008KT 01/M03 A2987 RMK A01 T00131032  RH  072%=      5-min Rain = 0
KBR1 221106Z 11008KT 01/M03 A2987 RMK A01 T00131032  RH  072%=      5-min Rain = 0
KBR1 221107Z 12009KT 01/M03 A2987 RMK A01 T00131032  RH  072%=      5-min Rain = 0
KBR1 221108Z 11009KT 01/M03 A2987 RMK A01 T00131032  RH  072%=      5-min Rain = 0
KBR1 221109Z 11009KT 01/M03 A2987 RMK A01 T00121032  RH  072%=      5-min Rain = 0
KBR1 221110Z 10008KT 01/M03 A2987 RMK A01 T00111032  RH  073%=      5-min Rain = 0
KBR1 221111Z 10008KT 01/M03 A2987 RMK A01 T00101033  RH  073%=      5-min Rain = 0
KBR1 221112Z 10007KT 01/M03 A2987 RMK A01 T00101033  RH  073%=      5-min Rain = 0
KBR1 221113Z 11006KT 01/M03 A2987 RMK A01 T00101032  RH  073%=      5-min Rain = 0
KBR1 221114Z 11005KT 01/M03 A2988 RMK A01 T00101032  RH  074%=      5-min Rain = 0
KBR1 221115Z 10005KT 01/M03 A2988 RMK A01 T00091032  RH  074%=      5-min Rain = 0
KBR1 221116Z 10004KT 01/M03 A2988 RMK A01 T00091033  RH  074%=      5-min Rain = 0
KBR1 221117Z 09004KT 01/M03 A2988 RMK A01 T00081033  RH  074%=      5-min Rain = 0
KBR1 221118Z 09005KT 01/M03 A2988 RMK A01 T00081033  RH  074%=      5-min Rain = 0
KBR1 221119Z 10004KT 01/M03 A2988 RMK A01 T00081032  RH  074%=      5-min Rain = 0
KBR1 221120Z 09004KT 01/M03 A2988 RMK A01 T00081033  RH  074%=      5-min Rain = 0
KBR1 221121Z 10005KT 01/M03 A2988 RMK A01 T00071033  RH  074%=      5-min Rain = 0
KBR1 221122Z 10005KT 01/M03 A2988 RMK A01 T00071033  RH  074%=      5-min Rain = 0
KBR1 221123Z 11006KT 01/M03 A2988 RMK A01 T00071033  RH  075%=      5-min Rain = 0
KBR1 221124Z 11007KT 01/M03 A2988 RMK A01 T00061034  RH  074%=      5-min Rain = 0
KBR1 221125Z 12008KT 01/M03 A2988 RMK A01 T00061034  RH  075%=      5-min Rain = 0
KBR1 221126Z 12008KT 01/M03 A2988 RMK A01 T00051034  RH  075%=      5-min Rain = 0
KBR1 221127Z 12009KT 00/M04 A2987 RMK A01 T00041035  RH  075%=      5-min Rain = 0
KBR1 221128Z 12009KT 00/M03 A2987 RMK A01 T00041034  RH  075%=      5-min Rain = 0
KBR1 221129Z 12009KT 00/M03 A2987 RMK A01 T00041034  RH  076%=      5-min Rain = 0
KBR1 221130Z 12009KT 00/M03 A2987 RMK A01 T00041034  RH  076%=      5-min Rain = 0
KBR1 221131Z 12009KT 00/M03 A2987 RMK A01 T00041034  RH  076%=      5-min Rain = 0
KBR1 221132Z 12008KT 00/M03 A2987 RMK A01 T00041033  RH  076%=      5-min Rain = 0
KBR1 221133Z 12008KT 00/M03 A2987 RMK A01 T00041033  RH  076%=      5-min Rain = 0
KBR1 221134Z 12008KT 00/M03 A2987 RMK A01 T00041033  RH  076%=      5-min Rain = 0
KBR1 221135Z 12007KT 00/M03 A2987 RMK A01 T00031033  RH  076%=      5-min Rain = 0
KBR1 221136Z 11007KT 00/M03 A2987 RMK A01 T00031034  RH  076%=      5-min Rain = 0
KBR1 221137Z 12007KT 00/M03 A2987 RMK A01 T00021034  RH  077%=      5-min Rain = 0
KBR1 221138Z 11007KT 00/M03 A2987 RMK A01 T00011034  RH  077%=      5-min Rain = 0
KBR1 221139Z 11007KT 00/M03 A2987 RMK A01 T00011034  RH  077%=      5-min Rain = 0
KBR1 221140Z 11006KT 00/M03 A2988 RMK A01 T00011034  RH  077%=      5-min Rain = 0
KBR1 221141Z 10005KT 00/M03 A2988 RMK A01 T00011034  RH  077%=      5-min Rain = 0
KBR1 221142Z 10005KT 00/M03 A2988 RMK A01 T00011034  RH  077%=      5-min Rain = 0
KBR1 221143Z 10004KT 00/04 A2988 RMK A01 T00000-35  RH  077%=      5-min Rain = 0
KBR1 221144Z 10005KT M00/M04 A2988 RMK A01 T10011035  RH  077%=      5-min Rain = 0
KBR1 221145Z 10005KT M00/M04 A2988 RMK A01 T10011035  RH  078%=      5-min Rain = 0
KBR1 221146Z 09005KT M00/M04 A2988 RMK A01 T10021036  RH  078%=      5-min Rain = 0
KBR1 221147Z 09005KT M00/M04 A2988 RMK A01 T10031036  RH  078%=      5-min Rain = 0
KBR1 221148Z 10005KT M00/M04 A2988 RMK A01 T10041037  RH  078%=      5-min Rain = 0
KBR1 221149Z 09005KT M00/M04 A2988 RMK A01 T10041037  RH  079%=      5-min Rain = 0
KBR1 221150Z 10005KT M01/M04 A2988 RMK A01 T10051037  RH  079%=      5-min Rain = 0
KBR1 221151Z 09005KT M01/M04 A2988 RMK A01 T10051036  RH  079%=      5-min Rain = 0
KBR1 221152Z 09007KT M01/M04 A2988 RMK A01 T10051036  RH  080%=      5-min Rain = 0
KBR1 221153Z 10008KT M01/M04 A2988 RMK A01 T10051036  RH  080%=      5-min Rain = 0
KBR1 221154Z 10008KT M01/M04 A2988 RMK A01 T10051036  RH  080%=      5-min Rain = 0
KBR1 221155Z 09009KT M01/M04 A2988 RMK A01 T10051035  RH  080%=      5-min Rain = 0
KBR1 221156Z 09008KT M01/M03 A2988 RMK A01 T10051034  RH  080%=      5-min Rain = 0
KBR1 221157Z 10007KT M00/M03 A2988 RMK A01 T10041034  RH  080%=      5-min Rain = 0
KBR1 221158Z 10007KT M00/M03 A2988 RMK A01 T10031033  RH  080%=      5-min Rain = 0
KBR1 221159Z 11007KT M00/M03 A2988 RMK A01 T10031033  RH  080%=      5-min Rain = 0
KBR1 221200Z 11007KT M00/M03 A2988 RMK A01 T10021032  RH  080%=      5-min Rain = 0
KBR1 221201Z 11007KT M00/M03 A2988 RMK A01 T10021032  RH  080%=      5-min Rain = 0
KBR1 221202Z 12008KT M00/M03 A2988 RMK A01 T10011032  RH  080%=      5-min Rain = 0
KBR1 221203Z 12008KT M00/M03 A2988 RMK A01 T10021033  RH  079%=      5-min Rain = 0
KBR1 221204Z 12009KT M00/M03 A2988 RMK A01 T10021034  RH  079%=      5-min Rain = 0
KBR1 221205Z 12010KT M00/M03 A2988 RMK A01 T10031034  RH  080%=      5-min Rain = 0
KBR1 221206Z 13008KT M00/M03 A2988 RMK A01 T10031034  RH  080%=      5-min Rain = 0
KBR1 221207Z 13008KT M00/M03 A2988 RMK A01 T10041034  RH  080%=      5-min Rain = 0
KBR1 221208Z 13008KT M00/M03 A2988 RMK A01 T10041034  RH  080%=      5-min Rain = 0
KBR1 221209Z 13008KT M01/M03 A2988 RMK A01 T10051034  RH  081%=      5-min Rain = 0
KBR1 221210Z 13007KT M01/M03 A2988 RMK A01 T10051034  RH  081%=      5-min Rain = 0
KBR1 221211Z 13006KT M01/M03 A2988 RMK A01 T10051034  RH  081%=      5-min Rain = 0
KBR1 221212Z 13005KT M01/M04 A2988 RMK A01 T10061035  RH  081%=      5-min Rain = 0
KBR1 221213Z 13005KT M01/M04 A2988 RMK A01 T10071036  RH  081%=      5-min Rain = 0
KBR1 221214Z 12004KT M01/M04 A2988 RMK A01 T10081037  RH  081%=      5-min Rain = 0
KBR1 221215Z 11004KT M01/M04 A2988 RMK A01 T10081037  RH  081%=      5-min Rain = 0
KBR1 221216Z 09003KT M01/M04 A2989 RMK A01 T10091037  RH  082%=      5-min Rain = 0
KBR1 221217Z 07003KT M01/M04 A2989 RMK A01 T10091036  RH  082%=      5-min Rain = 0
KBR1 221218Z 06004KT M01/M04 A2989 RMK A01 T10101037  RH  082%=      5-min Rain = 0
KBR1 221219Z 07005KT M01/M04 A2989 RMK A01 T10111038  RH  082%=      5-min Rain = 0
KBR1 221220Z 07006KT M01/M04 A2989 RMK A01 T10131041  RH  082%=      5-min Rain = 0
KBR1 221221Z 08007KT M02/M04 A2989 RMK A01 T10161043  RH  082%=      5-min Rain = 0
KBR1 221222Z 08007KT M02/M04 A2989 RMK A01 T10181043  RH  083%=      5-min Rain = 0
KBR1 221223Z 09008KT M02/M04 A2989 RMK A01 T10181041  RH  084%=      5-min Rain = 0
KBR1 221224Z 09008KT M02/M04 A2989 RMK A01 T10181041  RH  084%=      5-min Rain = 0
KBR1 221225Z 09007KT M02/M04 A2989 RMK A01 T10181040  RH  084%=      5-min Rain = 0
KBR1 221226Z 09007KT M02/M04 A2989 RMK A01 T10171040  RH  085%=      5-min Rain = 0
KBR1 221227Z 10008KT M02/M04 A2989 RMK A01 T10171040  RH  084%=      5-min Rain = 0
KBR1 221228Z 11007KT M02/M04 A2989 RMK A01 T10171039  RH  084%=      5-min Rain = 0
KBR1 221229Z 11007KT M02/M04 A2989 RMK A01 T10161039  RH  085%=      5-min Rain = 0
KBR1 221230Z 12008KT M02/M04 A2989 RMK A01 T10161038  RH  085%=      5-min Rain = 0
KBR1 221231Z 12008KT M02/M04 A2989 RMK A01 T10161039  RH  084%=      5-min Rain = 0
KBR1 221232Z 13008KT M02/M04 A2988 RMK A01 T10151038  RH  084%=      5-min Rain = 0
KBR1 221233Z 13008KT M02/M04 A2988 RMK A01 T10151038  RH  084%=      5-min Rain = 0
KBR1 221234Z 13008KT M02/M04 A2988 RMK A01 T10151038  RH  084%=      5-min Rain = 0
KBR1 221235Z 13008KT M02/M04 A2988 RMK A01 T10151038  RH  084%=      5-min Rain = 0
KBR1 221236Z 13008KT M02/M04 A2988 RMK A01 T10151038  RH  084%=      5-min Rain = 0
KBR1 221237Z 13007KT M02/M04 A2989 RMK A01 T10151038  RH  084%=      5-min Rain = 0
KBR1 221238Z 13006KT M02/M04 A2989 RMK A01 T10151038  RH  084%=      5-min Rain = 0
KBR1 221239Z 13005KT M02/M04 A2989 RMK A01 T10151038  RH  084%=      5-min Rain = 0
KBR1 221240Z 12005KT M02/M04 A2989 RMK A01 T10151038  RH  084%=      5-min Rain = 0
KBR1 221241Z 12005KT M02/M04 A2989 RMK A01 T10151038  RH  084%=      5-min Rain = 0
KBR1 221242Z 11005KT M02/M04 A2989 RMK A01 T10151038  RH  084%=      5-min Rain = 0
KBR1 221243Z 10005KT M02/M04 A2989 RMK A01 T10161040  RH  084%=      5-min Rain = 0
KBR1 221244Z 10006KT M02/M04 A2989 RMK A01 T10181042  RH  084%=      5-min Rain = 0
KBR1 221245Z 09005KT M02/M04 A2989 RMK A01 T10211044  RH  084%=      5-min Rain = 0
KBR1 221246Z 08005KT M02/M05 A2989 RMK A01 T10231046  RH  084%=      5-min Rain = 0
KBR1 221247Z 08005KT M03/M05 A2989 RMK A01 T10251047  RH  085%=      5-min Rain = 0
KBR1 221248Z 08006KT M03/M05 A2989 RMK A01 T10261046  RH  086%=      5-min Rain = 0
KBR1 221249Z 09006KT M03/M05 A2989 RMK A01 T10271046  RH  087%=      5-min Rain = 0
KBR1 221250Z 09006KT M03/M05 A2989 RMK A01 T10271045  RH  087%=      5-min Rain = 0
KBR1 221251Z 09006KT M03/M04 A2989 RMK A01 T10261043  RH  088%=      5-min Rain = 0
KBR1 221252Z 10006KT M03/M04 A2989 RMK A01 T10251042  RH  088%=      5-min Rain = 0
KBR1 221253Z 10007KT M03/M04 A2989 RMK A01 T10251042  RH  088%=      5-min Rain = 0
KBR1 221254Z 11007KT M02/M04 A2989 RMK A01 T10241042  RH  088%=      5-min Rain = 0
KBR1 221255Z 11008KT M02/M04 A2989 RMK A01 T10241042  RH  088%=      5-min Rain = 0
KBR1 221256Z 12008KT M02/M04 A2989 RMK A01 T10241042  RH  088%=      5-min Rain = 0
KBR1 221257Z 12008KT M02/M04 A2989 RMK A01 T10241042  RH  088%=      5-min Rain = 0
KBR1 221258Z 12007KT M02/M04 A2989 RMK A01 T10241042  RH  088%=      5-min Rain = 0
KBR1 221259Z 12006KT M03/M04 A2989 RMK A01 T10251042  RH  088%=      5-min Rain = 0
KBR1 221300Z 12006KT M02/M04 A2989 RMK A01 T10241041  RH  088%=      5-min Rain = 0
KBR1 221301Z 13006KT M02/M04 A2989 RMK A01 T10241041  RH  089%=      5-min Rain = 0
KBR1 221302Z 13006KT M03/M04 A2989 RMK A01 T10251041  RH  088%=      5-min Rain = 0
KBR1 221303Z 13006KT M03/M04 A2989 RMK A01 T10251042  RH  088%=      5-min Rain = 0
KBR1 221304Z 13006KT M03/M04 A2989 RMK A01 T10261043  RH  088%=      5-min Rain = 0
KBR1 221305Z 13005KT M03/M04 A2989 RMK A01 T10281044  RH  088%=      5-min Rain = 0
KBR1 221306Z 13005KT M03/M05 A2989 RMK A01 T10281045  RH  089%=      5-min Rain = 0
KBR1 221307Z 13006KT M03/M04 A2989 RMK A01 T10281043  RH  089%=      5-min Rain = 0
KBR1 221308Z 12006KT M03/M04 A2989 RMK A01 T10281043  RH  090%=      5-min Rain = 0
KBR1 221309Z 12006KT M03/M04 A2989 RMK A01 T10281042  RH  090%=      5-min Rain = 0
KBR1 221310Z 12005KT M03/M04 A2989 RMK A01 T10271042  RH  090%=      5-min Rain = 0
KBR1 221311Z 12005KT M03/M04 A2989 RMK A01 T10281042  RH  090%=      5-min Rain = 0
KBR1 221312Z 12006KT M03/M04 A2989 RMK A01 T10271042  RH  090%=      5-min Rain = 0
KBR1 221313Z 12006KT M03/M04 A2989 RMK A01 T10281042  RH  090%=      5-min Rain = 0
KBR1 221314Z 12006KT M03/M04 A2989 RMK A01 T10281043  RH  090%=      5-min Rain = 0
KBR1 221315Z 12006KT M03/M04 A2989 RMK A01 T10291044  RH  090%=      5-min Rain = 0
KBR1 221316Z 12006KT M03/M04 A2989 RMK A01 T10301044  RH  090%=      5-min Rain = 0
KBR1 221317Z 13007KT M03/M04 A2989 RMK A01 T10301043  RH  091%=      5-min Rain = 0
KBR1 221318Z 13007KT M03/M04 A2989 RMK A01 T10301043  RH  091%=      5-min Rain = 0
KBR1 221319Z 13007KT M03/M04 A2989 RMK A01 T10301043  RH  091%=      5-min Rain = 0
KBR1 221320Z 13007KT M03/M04 A2989 RMK A01 T10291042  RH  091%=      5-min Rain = 0
KBR1 221321Z 13007KT M03/M04 A2989 RMK A01 T10271039  RH  092%=      5-min Rain = 0
KBR1 221322Z 12007KT M03/M04 A2989 RMK A01 T10271039  RH  091%=      5-min Rain = 0
KBR1 221323Z 12007KT M03/M04 A2989 RMK A01 T10261038  RH  092%=      5-min Rain = 0
KBR1 221324Z 12006KT M03/M04 A2989 RMK A01 T10251037  RH  091%=      5-min Rain = 0
KBR1 221325Z 12006KT M03/M04 A2989 RMK A01 T10251037  RH  091%=      5-min Rain = 0
KBR1 221326Z 12006KT M03/M04 A2989 RMK A01 T10251038  RH  091%=      5-min Rain = 0
KBR1 221327Z 12006KT M03/M04 A2989 RMK A01 T10251038  RH  091%=      5-min Rain = 0
KBR1 221328Z 11006KT M03/M04 A2989 RMK A01 T10251039  RH  090%=      5-min Rain = 0
KBR1 221329Z 11006KT M03/M04 A2989 RMK A01 T10261039  RH  091%=      5-min Rain = 0
KBR1 221330Z 12006KT M03/M04 A299 RMK A01 T10261039  RH  091%=      5-min Rain = 0
KBR1 221331Z 11006KT M03/M04 A2989 RMK A01 T10271040  RH  091%=      5-min Rain = 0
KBR1 221332Z 11007KT M03/M04 A2989 RMK A01 T10271040  RH  091%=      5-min Rain = 0
KBR1 221333Z 11006KT M03/M04 A2989 RMK A01 T10271040  RH  091%=      5-min Rain = 0
KBR1 221334Z 11006KT M03/M04 A299 RMK A01 T10281041  RH  091%=      5-min Rain = 0
KBR1 221335Z 11006KT M03/M04 A299 RMK A01 T10301043  RH  090%=      5-min Rain = 0
KBR1 221336Z 11006KT M03/M04 A299 RMK A01 T10311044  RH  091%=      5-min Rain = 0
KBR1 221337Z 11006KT M03/M05 A299 RMK A01 T10321045  RH  091%=      5-min Rain = 0
KBR1 221338Z 11006KT M03/M05 A299 RMK A01 T10331045  RH  091%=      5-min Rain = 0
KBR1 221339Z 11005KT M03/M05 A299 RMK A01 T10331045  RH  092%=      5-min Rain = 0
KBR1 221340Z 11006KT M03/M04 A299 RMK A01 T10331044  RH  092%=      5-min Rain = 0
KBR1 221341Z 11006KT M03/M04 A299 RMK A01 T10331044  RH  092%=      5-min Rain = 0
KBR1 221342Z 11006KT M03/M04 A299 RMK A01 T10331044  RH  093%=      5-min Rain = 0
KBR1 221343Z 11007KT M03/M04 A299 RMK A01 T10331043  RH  093%=      5-min Rain = 0
KBR1 221344Z 12007KT M03/M04 A299 RMK A01 T10321041  RH  093%=      5-min Rain = 0
KBR1 221345Z 12007KT M03/M04 A299 RMK A01 T10301039  RH  093%=      5-min Rain = 0
KBR1 221346Z 12007KT M03/M04 A299 RMK A01 T10301039  RH  093%=      5-min Rain = 0
KBR1 221347Z 12007KT M03/M04 A299 RMK A01 T10281038  RH  093%=      5-min Rain = 0
KBR1 221348Z 13007KT M03/M04 A299 RMK A01 T10281038  RH  093%=      5-min Rain = 0
KBR1 221349Z 13007KT M03/M04 A299 RMK A01 T10271037  RH  093%=      5-min Rain = 0
KBR1 221350Z 13007KT M03/M04 A299 RMK A01 T10261036  RH  093%=      5-min Rain = 0
KBR1 221351Z 13007KT M03/M04 A299 RMK A01 T10261036  RH  093%=      5-min Rain = 0
KBR1 221352Z 13006KT M03/M04 A299 RMK A01 T10251035  RH  093%=      5-min Rain = 0
KBR1 221353Z 13006KT M02/M04 A299 RMK A01 T10241035  RH  092%=      5-min Rain = 0
KBR1 221354Z 13006KT M02/M04 A299 RMK A01 T10241035  RH  092%=      5-min Rain = 0
KBR1 221355Z 13006KT M02/M04 A299 RMK A01 T10241035  RH  092%=      5-min Rain = 0
KBR1 221356Z 12006KT M02/M04 A299 RMK A01 T10231036  RH  091%=      5-min Rain = 0
KBR1 221357Z 12006KT M02/M04 A299 RMK A01 T10231036  RH  091%=      5-min Rain = 0
KBR1 221358Z 12006KT M02/M04 A299 RMK A01 T10231036  RH  091%=      5-min Rain = 0
KBR1 221359Z 12006KT M02/M04 A299 RMK A01 T10231036  RH  091%=      5-min Rain = 0
KBR1 221400Z 12005KT M02/M04 A299 RMK A01 T10231037  RH  090%=      5-min Rain = 0
KBR1 221401Z 12005KT M02/M04 A299 RMK A01 T10241038  RH  090%=      5-min Rain = 0
KBR1 221402Z 12005KT M03/M04 A299 RMK A01 T10251039  RH  090%=      5-min Rain = 0
KBR1 221403Z 12005KT M03/M04 A299 RMK A01 T10251039  RH  090%=      5-min Rain = 0
KBR1 221404Z 12004KT M03/M04 A2991 RMK A01 T10251038  RH  090%=      5-min Rain = 0
KBR1 221405Z 12004KT M02/M04 A2991 RMK A01 T10241038  RH  091%=      5-min Rain = 0
KBR1 221406Z 12004KT M02/M04 A2991 RMK A01 T10231037  RH  091%=      5-min Rain = 0
KBR1 221407Z 12005KT M02/M04 A2991 RMK A01 T10231036  RH  091%=      5-min Rain = 0
KBR1 221408Z 12005KT M02/M04 A2991 RMK A01 T10221035  RH  091%=      5-min Rain = 0
KBR1 221409Z 12005KT M02/M04 A2991 RMK A01 T10221035  RH  091%=      5-min Rain = 0
KBR1 221410Z 12005KT M02/M03 A2991 RMK A01 T10211033  RH  091%=      5-min Rain = 0
KBR1 221411Z 12005KT M02/M03 A2991 RMK A01 T10201032  RH  092%=      5-min Rain = 0
KBR1 221412Z 12005KT M02/M03 A2991 RMK A01 T10191031  RH  092%=      5-min Rain = 0
KBR1 221413Z 12005KT M02/M03 A2991 RMK A01 T10181030  RH  091%=      5-min Rain = 0
KBR1 221414Z 12005KT M02/M03 A2991 RMK A01 T10171029  RH  091%=      5-min Rain = 0
KBR1 221415Z 12005KT M02/M03 A2991 RMK A01 T10161029  RH  091%=      5-min Rain = 0
KBR1 221416Z 11005KT M02/M03 A2991 RMK A01 T10151028  RH  091%=      5-min Rain = 0
KBR1 221417Z 11005KT M01/M03 A2991 RMK A01 T10141028  RH  090%=      5-min Rain = 0
KBR1 221418Z 11005KT M01/M03 A2991 RMK A01 T10141028  RH  090%=      5-min Rain = 0
KBR1 221419Z 11005KT M01/M03 A2991 RMK A01 T10141028  RH  090%=      5-min Rain = 0
KBR1 221420Z 12006KT M01/M03 A2991 RMK A01 T10141029  RH  090%=      5-min Rain = 0
KBR1 221421Z 11006KT M01/M03 A299 RMK A01 T10141029  RH  090%=      5-min Rain = 0
KBR1 221422Z 11006KT M01/M03 A299 RMK A01 T10131028  RH  089%=      5-min Rain = 0
KBR1 221423Z 11006KT M01/M03 A299 RMK A01 T10131029  RH  089%=      5-min Rain = 0
KBR1 221424Z 11005KT M01/M03 A2991 RMK A01 T10131028  RH  089%=      5-min Rain = 0
KBR1 221425Z 11005KT M01/M03 A2991 RMK A01 T10131029  RH  089%=      5-min Rain = 0
KBR1 221426Z 10005KT M01/M03 A2991 RMK A01 T10131028  RH  089%=      5-min Rain = 0
KBR1 221427Z 10005KT M01/M03 A2991 RMK A01 T10131028  RH  089%=      5-min Rain = 0
KBR1 221428Z 11005KT M01/M03 A2991 RMK A01 T10121028  RH  089%=      5-min Rain = 0
KBR1 221429Z 11005KT M01/M03 A2991 RMK A01 T10121027  RH  089%=      5-min Rain = 0
KBR1 221430Z 11005KT M01/M03 A2991 RMK A01 T10111026  RH  089%=      5-min Rain = 0
KBR1 221431Z 11005KT M01/M03 A2991 RMK A01 T10101025  RH  090%=      5-min Rain = 0
KBR1 221432Z 11004KT M01/M03 A2991 RMK A01 T10101025  RH  090%=      5-min Rain = 0
KBR1 221433Z 11005KT M01/M02 A2991 RMK A01 T10091024  RH  089%=      5-min Rain = 0
KBR1 221434Z 11005KT M01/M02 A2991 RMK A01 T10081023  RH  089%=      5-min Rain = 0
KBR1 221435Z 11004KT M01/M02 A2991 RMK A01 T10071023  RH  089%=      5-min Rain = 0
KBR1 221436Z 11005KT M01/M02 A2991 RMK A01 T10061022  RH  089%=      5-min Rain = 0
KBR1 221437Z 11005KT M01/M02 A2991 RMK A01 T10051021  RH  089%=      5-min Rain = 0
KBR1 221438Z 12005KT M00/M02 A2991 RMK A01 T10041019  RH  089%=      5-min Rain = 0
KBR1 221439Z 12006KT M00/M02 A2991 RMK A01 T10031019  RH  089%=      5-min Rain = 0
KBR1 221440Z 12006KT M00/M02 A2991 RMK A01 T10021019  RH  089%=      5-min Rain = 0
KBR1 221441Z 13004KT M00/M02 A2991 RMK A01 T10021018  RH  089%=      5-min Rain = 0
KBR1 221442Z 13004KT M00/M02 A2992 RMK A01 T10011017  RH  089%=      5-min Rain = 0
KBR1 221443Z 14006KT 00/M02 A2991 RMK A01 T00011016  RH  088%=      5-min Rain = 0
KBR1 221444Z 13006KT 00/M02 A2991 RMK A01 T00021016  RH  088%=      5-min Rain = 0
KBR1 221445Z 14007KT 00/M01 A2991 RMK A01 T00031014  RH  088%=      5-min Rain = 0
KBR1 221446Z 14007KT 01/M01 A2992 RMK A01 T00051014  RH  087%=      5-min Rain = 0
KBR1 221447Z 15007KT 01/M01 A2992 RMK A01 T00061014  RH  087%=      5-min Rain = 0
KBR1 221448Z 16006KT 01/M01 A2992 RMK A01 T00061014  RH  086%=      5-min Rain = 0
KBR1 221449Z 16005KT 01/M02 A2992 RMK A01 T00061015  RH  086%=      5-min Rain = 0
KBR1 221450Z 15006KT 01/M02 A2992 RMK A01 T00061015  RH  086%=      5-min Rain = 0
KBR1 221451Z 15007KT 01/M01 A2992 RMK A01 T00071013  RH  086%=      5-min Rain = 0
KBR1 221452Z 16007KT 01/M01 A2992 RMK A01 T00081012  RH  086%=      5-min Rain = 0
KBR1 221453Z 15006KT 01/M01 A2992 RMK A01 T00091012  RH  086%=      5-min Rain = 0
KBR1 221454Z 14007KT 01/M01 A2992 RMK A01 T00091012  RH  086%=      5-min Rain = 0
KBR1 221455Z 15007KT 01/M01 A2992 RMK A01 T00101012  RH  085%=      5-min Rain = 0
KBR1 221456Z 14006KT 01/M01 A2992 RMK A01 T00101012  RH  085%=      5-min Rain = 0
KBR1 221457Z 14007KT 01/M01 A2992 RMK A01 T00121011  RH  085%=      5-min Rain = 0
KBR1 221458Z 14007KT 01/M01 A2992 RMK A01 T00121012  RH  084%=      5-min Rain = 0
KBR1 221459Z 14008KT 01/M01 A2992 RMK A01 T00121011  RH  084%=      5-min Rain = 0
KBR1 221500Z 15008KT 01/M01 A2992 RMK A01 T00121012  RH  084%=      5-min Rain = 0
KBR1 221501Z 15008KT 01/M01 A2992 RMK A01 T00111012  RH  084%=      5-min Rain = 0
KBR1 221502Z 13008KT 01/M01 A2992 RMK A01 T00111012  RH  084%=      5-min Rain = 0
KBR1 221503Z 14008KT 01/M01 A2992 RMK A01 T00111012  RH  085%=      5-min Rain = 0
KBR1 221504Z 16007KT 01/M01 A2992 RMK A01 T00111012  RH  085%=      5-min Rain = 0
KBR1 221505Z 15005KT 01/M01 A2992 RMK A01 T00101012  RH  085%=      5-min Rain = 0
KBR1 221506Z 14007KT 01/M01 A2992 RMK A01 T00101011  RH  086%=      5-min Rain = 0
KBR1 221507Z 13009KT 01/M01 A2992 RMK A01 T00111010  RH  086%=      5-min Rain = 0
KBR1 221508Z 14009KT 01/M01 A2992 RMK A01 T00111010  RH  086%=      5-min Rain = 0
KBR1 221509Z 15008KT 01/M01 A2992 RMK A01 T00111011  RH  085%=      5-min Rain = 0
KBR1 221510Z 14009KT 01/M01 A2992 RMK A01 T00101011  RH  086%=      5-min Rain = 0
KBR1 221511Z 14009KT 01/M01 A2992 RMK A01 T00101011  RH  086%=      5-min Rain = 0
KBR1 221512Z 14009KT 01/M01 A2992 RMK A01 T00111010  RH  086%=      5-min Rain = 0
KBR1 221513Z 14009KT 01/M01 A2992 RMK A01 T00111011  RH  085%=      5-min Rain = 0
KBR1 221514Z 14010KT 01/M01 A2992 RMK A01 T00101012  RH  085%=      5-min Rain = 0
KBR1 221515Z 14010KT 01/M01 A2992 RMK A01 T00101011  RH  086%=      5-min Rain = 0
KBR1 221516Z 14010KT 01/M01 A2992 RMK A01 T00101010  RH  086%=      5-min Rain = 0
KBR1 221517Z 14009KT 01/M01 A2992 RMK A01 T00101011  RH  086%=      5-min Rain = 0
KBR1 221518Z 14010KT 01/M01 A2992 RMK A01 T00111010  RH  086%=      5-min Rain = 0
KBR1 221519Z 14009KT 01/M01 A2993 RMK A01 T00111010  RH  086%=      5-min Rain = 0
KBR1 221520Z 15011KT 01/M01 A2993 RMK A01 T00121009  RH  086%=      5-min Rain = 0
KBR1 221521Z 14008KT 01/M01 A2993 RMK A01 T00111010  RH  085%=      5-min Rain = 0
KBR1 221522Z 15008KT 01/M01 A2993 RMK A01 T00111010  RH  086%=      5-min Rain = 0
KBR1 221523Z 15007KT 01/M01 A2993 RMK A01 T00111010  RH  086%=      5-min Rain = 0
KBR1 221524Z 14009KT 01/M01 A2993 RMK A01 T00121009  RH  086%=      5-min Rain = 0
KBR1 221525Z 15009KT 01/M01 A2993 RMK A01 T00131009  RH  086%=      5-min Rain = 0
KBR1 221526Z 15009KT 01/M01 A2992 RMK A01 T00131009  RH  085%=      5-min Rain = 0
KBR1 221527Z 16009KT 01/M01 A2992 RMK A01 T00131009  RH  085%=      5-min Rain = 0
KBR1 221528Z 15008KT 01/M01 A2992 RMK A01 T00131009  RH  085%=      5-min Rain = 0
KBR1 221529Z 15009KT 01/M01 A2992 RMK A01 T00141008  RH  085%=      5-min Rain = 0
KBR1 221530Z 16009KT 01/M01 A2992 RMK A01 T00141008  RH  085%=      5-min Rain = 0
KBR1 221531Z 15010KT 02/M01 A2992 RMK A01 T00151008  RH  085%=      5-min Rain = 0
KBR1 221532Z 14010KT 02/M01 A2992 RMK A01 T00151008  RH  085%=      5-min Rain = 0
KBR1 221533Z 13010KT 02/M01 A2992 RMK A01 T00151008  RH  084%=      5-min Rain = 0
KBR1 221534Z 14009KT 01/M01 A2992 RMK A01 T00141009  RH  085%=      5-min Rain = 0
KBR1 221535Z 15010KT 01/M01 A2992 RMK A01 T00141009  RH  085%=      5-min Rain = 0
KBR1 221536Z 15009KT 01/M01 A2992 RMK A01 T00141008  RH  085%=      5-min Rain = 0
KBR1 221537Z 13007KT 02/M01 A2992 RMK A01 T00151007  RH  085%=      5-min Rain = 0
KBR1 221538Z 13009KT 02/M01 A2992 RMK A01 T00161006  RH  085%=      5-min Rain = 0
KBR1 221539Z 14010KT 02/M01 A2992 RMK A01 T00171006  RH  085%=      5-min Rain = 0
KBR1 221540Z 14008KT 02/M01 A2992 RMK A01 T00171007  RH  084%=      5-min Rain = 0
KBR1 221541Z 13010KT 02/M01 A2992 RMK A01 T00171006  RH  085%=      5-min Rain = 0
KBR1 221542Z 13012KT 02/M01 A2992 RMK A01 T00161007  RH  085%=      5-min Rain = 0
KBR1 221543Z 14011KT 02/M01 A2992 RMK A01 T00161007  RH  085%=      5-min Rain = 0
KBR1 221544Z 14010KT 02/M01 A2992 RMK A01 T00151007  RH  085%=      5-min Rain = 0
KBR1 221545Z 14009KT 02/M01 A2992 RMK A01 T00151007  RH  085%=      5-min Rain = 0
KBR1 221546Z 13010KT 02/M01 A2992 RMK A01 T00151007  RH  086%=      5-min Rain = 0
KBR1 221547Z 13009KT 02/M01 A2992 RMK A01 T00151007  RH  085%=      5-min Rain = 0
KBR1 221548Z 14009KT 02/M01 A2992 RMK A01 T00151007  RH  085%=      5-min Rain = 0
KBR1 221549Z 14009KT 02/M01 A2992 RMK A01 T00151007  RH  085%=      5-min Rain = 0
KBR1 221550Z 14009KT 02/M01 A2992 RMK A01 T00151007  RH  085%=      5-min Rain = 0
KBR1 221551Z 14010KT 02/M01 A2992 RMK A01 T00161006  RH  085%=      5-min Rain = 0
KBR1 221552Z 15010KT 02/M01 A2992 RMK A01 T00171006  RH  085%=      5-min Rain = 0
KBR1 221553Z 14009KT 02/M01 A2992 RMK A01 T00181006  RH  084%=      5-min Rain = 0
KBR1 221554Z 14010KT 02/M01 A2992 RMK A01 T00171007  RH  084%=      5-min Rain = 0
KBR1 221555Z 14008KT 02/M01 A2992 RMK A01 T00161007  RH  084%=      5-min Rain = 0
KBR1 221556Z 13007KT 02/M01 A2992 RMK A01 T00161007  RH  085%=      5-min Rain = 0
KBR1 221557Z 14010KT 02/M01 A2992 RMK A01 T00171006  RH  085%=      5-min Rain = 0
KBR1 221558Z 14009KT 02/M01 A2992 RMK A01 T00181006  RH  084%=      5-min Rain = 0
KBR1 221559Z 13009KT 02/M01 A2992 RMK A01 T00181006  RH  084%=      5-min Rain = 0
KBR1 221600Z 15012KT 02/M01 A2992 RMK A01 T00181006  RH  084%=      5-min Rain = 0
KBR1 221601Z 17009KT 02/M01 A2993 RMK A01 T00181007  RH  084%=      5-min Rain = 0
KBR1 221602Z 15009KT 02/M01 A2993 RMK A01 T00191006  RH  083%=      5-min Rain = 0
KBR1 221603Z 15009KT 02/M01 A2993 RMK A01 T00191007  RH  083%=      5-min Rain = 0
KBR1 221604Z 14007KT 02/M01 A2993 RMK A01 T00191007  RH  083%=      5-min Rain = 0
KBR1 221605Z 14008KT 02/M01 A2993 RMK A01 T00191006  RH  083%=      5-min Rain = 0
KBR1 221606Z 14009KT 02/M01 A2993 RMK A01 T00201006  RH  083%=      5-min Rain = 0
KBR1 221607Z 14011KT 02/M01 A2992 RMK A01 T00201006  RH  083%=      5-min Rain = 0
KBR1 221608Z 14010KT 02/M01 A2992 RMK A01 T00201007  RH  083%=      5-min Rain = 0
KBR1 221609Z 14009KT 02/M01 A2992 RMK A01 T00191007  RH  083%=      5-min Rain = 0
KBR1 221610Z 14007KT 02/M01 A2992 RMK A01 T00181008  RH  083%=      5-min Rain = 0
KBR1 221611Z 14009KT 02/M01 A2992 RMK A01 T00181007  RH  083%=      5-min Rain = 0
KBR1 221612Z 15010KT 02/M01 A2992 RMK A01 T00191006  RH  084%=      5-min Rain = 0
KBR1 221613Z 16009KT 02/M01 A2992 RMK A01 T00191007  RH  083%=      5-min Rain = 0
KBR1 221614Z 15007KT 02/M01 A2992 RMK A01 T00191007  RH  083%=      5-min Rain = 0
KBR1 221615Z 16006KT 02/M01 A2992 RMK A01 T00191007  RH  083%=      5-min Rain = 0
KBR1 221616Z 14008KT 02/M01 A2992 RMK A01 T00191006  RH  083%=      5-min Rain = 0
KBR1 221617Z 13009KT 02/M01 A2992 RMK A01 T00211005  RH  083%=      5-min Rain = 0
KBR1 221618Z 14008KT 02/M01 A2992 RMK A01 T00201007  RH  082%=      5-min Rain = 0
KBR1 221619Z 15008KT 02/M01 A2992 RMK A01 T00201006  RH  083%=      5-min Rain = 0
KBR1 221620Z 15007KT 02/M01 A2992 RMK A01 T00211006  RH  082%=      5-min Rain = 0
KBR1 221621Z 13006KT 02/M01 A2992 RMK A01 T00221005  RH  082%=      5-min Rain = 0
KBR1 221622Z 13007KT 02/M00 A2992 RMK A01 T00241004  RH  082%=      5-min Rain = 0
KBR1 221623Z 14007KT 03/M00 A2992 RMK A01 T00251004  RH  081%=      5-min Rain = 0
KBR1 221624Z 14007KT 03/M01 A2992 RMK A01 T00251005  RH  081%=      5-min Rain = 0
KBR1 221625Z 14007KT 02/M01 A2992 RMK A01 T00231006  RH  081%=      5-min Rain = 0
KBR1 221626Z 14007KT 02/M01 A2992 RMK A01 T00221006  RH  081%=      5-min Rain = 0
KBR1 221627Z 12006KT 02/M01 A2992 RMK A01 T00221005  RH  082%=      5-min Rain = 0
KBR1 221628Z 12009KT 02/M00 A2992 RMK A01 T00241004  RH  082%=      5-min Rain = 0
KBR1 221629Z 13008KT 02/M01 A2992 RMK A01 T00241005  RH  081%=      5-min Rain = 0
KBR1 221630Z 14006KT 03/M00 A2992 RMK A01 T00251004  RH  081%=      5-min Rain = 0
KBR1 221631Z 13005KT 03/M01 A2992 RMK A01 T00251005  RH  081%=      5-min Rain = 0
KBR1 221632Z 14008KT 03/M01 A2992 RMK A01 T00251005  RH  081%=      5-min Rain = 0
KBR1 221633Z 14008KT 03/M01 A2992 RMK A01 T00251005  RH  081%=      5-min Rain = 0
KBR1 221634Z 14007KT 02/M01 A2992 RMK A01 T00241006  RH  081%=      5-min Rain = 0
KBR1 221635Z 13007KT 02/M01 A2992 RMK A01 T00241005  RH  081%=      5-min Rain = 0
KBR1 221636Z 14008KT 03/M01 A2992 RMK A01 T00251005  RH  081%=      5-min Rain = 0
KBR1 221637Z 14007KT 03/M01 A2992 RMK A01 T00251005  RH  081%=      5-min Rain = 0
KBR1 221638Z 15008KT 03/M00 A2992 RMK A01 T00271004  RH  080%=      5-min Rain = 0
KBR1 221639Z 14008KT 03/M01 A2992 RMK A01 T00271005  RH  080%=      5-min Rain = 0
KBR1 221640Z 14007KT 03/M01 A2992 RMK A01 T00261005  RH  080%=      5-min Rain = 0
KBR1 221641Z 13005KT 03/M01 A2992 RMK A01 T00251005  RH  080%=      5-min Rain = 0
KBR1 221642Z 13004KT 03/M00 A2992 RMK A01 T00261004  RH  081%=      5-min Rain = 0
KBR1 221643Z 14007KT 03/M00 A2992 RMK A01 T00271003  RH  080%=      5-min Rain = 0
KBR1 221644Z 13008KT 03/M00 A2991 RMK A01 T00301002  RH  080%=      5-min Rain = 0
KBR1 221645Z 13007KT 03/M00 A2991 RMK A01 T00311003  RH  079%=      5-min Rain = 0
KBR1 221646Z 14006KT 03/M00 A2991 RMK A01 T00301004  RH  079%=      5-min Rain = 0
KBR1 221647Z 13008KT 03/M00 A2991 RMK A01 T00311002  RH  079%=      5-min Rain = 0
KBR1 221648Z 14008KT 03/M00 A2991 RMK A01 T00331001  RH  078%=      5-min Rain = 0
KBR1 221649Z 14007KT 03/M00 A2991 RMK A01 T00341001  RH  078%=      5-min Rain = 0
KBR1 221650Z 14009KT 03/M00 A2991 RMK A01 T00341002  RH  077%=      5-min Rain = 0
KBR1 221651Z 14009KT 03/M00 A2991 RMK A01 T00341002  RH  077%=      5-min Rain = 0
KBR1 221652Z 14010KT 03/M00 A2991 RMK A01 T00341003  RH  077%=      5-min Rain = 0
KBR1 221653Z 13008KT 03/M00 A2991 RMK A01 T00331004  RH  077%=      5-min Rain = 0
KBR1 221654Z 14005KT 03/M00 A2991 RMK A01 T00321003  RH  078%=      5-min Rain = 0
KBR1 221655Z 13007KT 03/M00 A2991 RMK A01 T00321003  RH  078%=      5-min Rain = 0
KBR1 221656Z 13007KT 04/00 A2991 RMK A01 T003500-0  RH  078%=      5-min Rain = 0
KBR1 221657Z 12006KT 04/00 A2991 RMK A01 T00380000  RH  077%=      5-min Rain = 0
KBR1 221658Z 12006KT 04/M00 A2991 RMK A01 T00381001  RH  076%=      5-min Rain = 0
KBR1 221659Z 13007KT 04/M00 A2991 RMK A01 T00381001  RH  076%=      5-min Rain = 0
KBR1 221700Z 12007KT 04/00 A2991 RMK A01 T00390000  RH  076%=      5-min Rain = 0
KBR1 221701Z 13008KT 04/00 A2991 RMK A01 T004100-0  RH  074%=      5-min Rain = 0
KBR1 221702Z 13005KT 04/M00 A299 RMK A01 T00401002  RH  074%=      5-min Rain = 0
KBR1 221703Z 15008KT 04/M00 A299 RMK A01 T00391002  RH  075%=      5-min Rain = 0
KBR1 221704Z 14006KT 04/00 A299 RMK A01 T004100-0  RH  074%=      5-min Rain = 0
KBR1 221705Z 13004KT 04/M00 A299 RMK A01 T00421001  RH  074%=      5-min Rain = 0
KBR1 221706Z 15007KT 04/M00 A299 RMK A01 T00421001  RH  074%=      5-min Rain = 0
KBR1 221707Z 14007KT 04/M00 A299 RMK A01 T00411002  RH  074%=      5-min Rain = 0
KBR1 221708Z 13005KT 04/M00 A299 RMK A01 T00411001  RH  074%=      5-min Rain = 0
KBR1 221709Z 12005KT 05/00 A299 RMK A01 T00450002  RH  074%=      5-min Rain = 0
KBR1 221710Z 14003KT 05/00 A299 RMK A01 T00470001  RH  072%=      5-min Rain = 0
KBR1 221711Z 13006KT 05/00 A299 RMK A01 T00500003  RH  072%=      5-min Rain = 0
KBR1 221712Z 13006KT 05/00 A299 RMK A01 T00520003  RH  070%=      5-min Rain = 0
KBR1 221713Z 14008KT 05/00 A299 RMK A01 T00530002  RH  069%=      5-min Rain = 0
KBR1 221714Z 14005KT 05/00 A299 RMK A01 T00530000  RH  069%=      5-min Rain = 0
KBR1 221715Z 13006KT 05/00 A299 RMK A01 T00520000  RH  069%=      5-min Rain = 0
KBR1 221716Z 13007KT 05/00 A299 RMK A01 T00540003  RH  069%=      5-min Rain = 0
KBR1 221717Z 12006KT 06/00 A299 RMK A01 T00550001  RH  068%=      5-min Rain = 0
KBR1 221718Z 11006KT 05/00 A299 RMK A01 T005200-0  RH  069%=      5-min Rain = 0
KBR1 221719Z 12008KT 05/00 A299 RMK A01 T00530003  RH  070%=      5-min Rain = 0
KBR1 221720Z 13010KT 06/00 A299 RMK A01 T00570003  RH  068%=      5-min Rain = 0
KBR1 221721Z 13008KT 06/00 A299 RMK A01 T00580002  RH  067%=      5-min Rain = 0
KBR1 221722Z 14007KT 06/00 A299 RMK A01 T00570000  RH  067%=      5-min Rain = 0
KBR1 221723Z 15007KT 06/00 A299 RMK A01 T00570002  RH  067%=      5-min Rain = 0
KBR1 221724Z 16008KT 06/00 A299 RMK A01 T00590002  RH  067%=      5-min Rain = 0
KBR1 221725Z 16007KT 06/00 A299 RMK A01 T005700-0  RH  067%=      5-min Rain = 0
KBR1 221726Z 15006KT 06/00 A299 RMK A01 T00550000  RH  067%=      5-min Rain = 0
KBR1 221727Z 13009KT 06/00 A299 RMK A01 T00560001  RH  068%=      5-min Rain = 0
KBR1 221728Z 12008KT 06/00 A299 RMK A01 T00570001  RH  067%=      5-min Rain = 0
KBR1 221729Z 12007KT 06/00 A299 RMK A01 T00570002  RH  067%=      5-min Rain = 0
KBR1 221730Z 12006KT 06/00 A299 RMK A01 T00610004  RH  067%=      5-min Rain = 0
KBR1 221731Z 13005KT 06/00 A299 RMK A01 T00630003  RH  066%=      5-min Rain = 0
KBR1 221732Z 13009KT 07/01 A299 RMK A01 T00650005  RH  065%=      5-min Rain = 0
KBR1 221733Z 12007KT 07/00 A2989 RMK A01 T00660002  RH  064%=      5-min Rain = 0
KBR1 221734Z 13010KT 06/00 A2989 RMK A01 T00640002  RH  064%=      5-min Rain = 0
KBR1 221735Z 12010KT 07/00 A2989 RMK A01 T00650002  RH  064%=      5-min Rain = 0
KBR1 221736Z 12008KT 07/00 A2989 RMK A01 T00650002  RH  064%=      5-min Rain = 0
KBR1 221737Z 11007KT 06/00 A2989 RMK A01 T00640002  RH  064%=      5-min Rain = 0
KBR1 221738Z 12007KT 06/00 A2989 RMK A01 T00640003  RH  065%=      5-min Rain = 0
KBR1 221739Z 12006KT 07/00 A299 RMK A01 T00660003  RH  064%=      5-min Rain = 0
KBR1 221740Z 10004KT 06/00 A2989 RMK A01 T00640000  RH  064%=      5-min Rain = 0
KBR1 221741Z 12004KT 06/00 A2989 RMK A01 T00620001  RH  065%=      5-min Rain = 0
KBR1 221742Z 12010KT 06/00 A2989 RMK A01 T00640003  RH  065%=      5-min Rain = 0
KBR1 221743Z 12008KT 07/00 A2989 RMK A01 T00670002  RH  063%=      5-min Rain = 0
KBR1 221744Z 09006KT 07/00 A2989 RMK A01 T00670002  RH  063%=      5-min Rain = 0
KBR1 221745Z 10005KT 07/00 A2989 RMK A01 T00680002  RH  063%=      5-min Rain = 0
KBR1 221746Z 12008KT 07/00 A2989 RMK A01 T00690004  RH  063%=      5-min Rain = 0
KBR1 221747Z 13006KT 07/00 A2989 RMK A01 T00700002  RH  062%=      5-min Rain = 0
KBR1 221748Z 14009KT 07/00 A2989 RMK A01 T00690002  RH  063%=      5-min Rain = 0
KBR1 221749Z 13005KT 07/00 A2989 RMK A01 T00710003  RH  062%=      5-min Rain = 0
KBR1 221750Z 14007KT 07/00 A2989 RMK A01 T00720003  RH  061%=      5-min Rain = 0
KBR1 221751Z 14008KT 07/00 A2989 RMK A01 T00720003  RH  061%=      5-min Rain = 0
KBR1 221752Z 12008KT 07/00 A2989 RMK A01 T00720002  RH  061%=      5-min Rain = 0
KBR1 221753Z 14007KT 07/00 A2989 RMK A01 T00710002  RH  061%=      5-min Rain = 0
KBR1 221754Z 15010KT 07/00 A2989 RMK A01 T00730004  RH  062%=      5-min Rain = 0
KBR1 221755Z 15009KT 08/01 A2989 RMK A01 T00760005  RH  061%=      5-min Rain = 0
KBR1 221756Z 16006KT 08/00 A2989 RMK A01 T00760004  RH  060%=      5-min Rain = 0
KBR1 221757Z 16004KT 08/00 A2989 RMK A01 T00760003  RH  060%=      5-min Rain = 0
KBR1 221758Z 14003KT 08/00 A2988 RMK A01 T00760004  RH  060%=      5-min Rain = 0
KBR1 221759Z 12005KT 08/01 A2988 RMK A01 T00780006  RH  060%=      5-min Rain = 0
KBR1 221800Z 13005KT 08/01 A2988 RMK A01 T00800005  RH  059%=      5-min Rain = 0
KBR1 221801Z 17004KT 08/00 A2988 RMK A01 T00800004  RH  059%=      5-min Rain = 0
KBR1 221802Z 15009KT 08/01 A2988 RMK A01 T00820005  RH  058%=      5-min Rain = 0
KBR1 221803Z 16010KT 08/00 A2988 RMK A01 T00830004  RH  057%=      5-min Rain = 0
KBR1 221804Z 17005KT 08/00 A2988 RMK A01 T00790001  RH  058%=      5-min Rain = 0
KBR1 221805Z 16009KT 08/00 A2988 RMK A01 T00770001  RH  059%=      5-min Rain = 0
KBR1 221806Z 16007KT 08/00 A2988 RMK A01 T00770001  RH  059%=      5-min Rain = 0
KBR1 221807Z 15007KT 08/00 A2988 RMK A01 T00770003  RH  059%=      5-min Rain = 0
KBR1 221808Z 13008KT 08/00 A2988 RMK A01 T00800003  RH  058%=      5-min Rain = 0
KBR1 221809Z 12008KT 08/00 A2988 RMK A01 T00790002  RH  058%=      5-min Rain = 0
KBR1 221810Z 13009KT 08/00 A2988 RMK A01 T00790003  RH  058%=      5-min Rain = 0
KBR1 221811Z 14007KT 08/00 A2988 RMK A01 T00810003  RH  058%=      5-min Rain = 0
KBR1 221812Z 13008KT 08/00 A2988 RMK A01 T00810003  RH  058%=      5-min Rain = 0
KBR1 221813Z 14009KT 08/00 A2988 RMK A01 T00830004  RH  058%=      5-min Rain = 0
KBR1 221814Z 15011KT 09/00 A2988 RMK A01 T00860004  RH  056%=      5-min Rain = 0
KBR1 221815Z 16010KT 09/01 A2988 RMK A01 T00890005  RH  056%=      5-min Rain = 0
KBR1 221816Z 16007KT 09/00 A2987 RMK A01 T00900004  RH  055%=      5-min Rain = 0
KBR1 221817Z 15006KT 09/00 A2987 RMK A01 T00890002  RH  055%=      5-min Rain = 0
KBR1 221818Z 13008G13KT 09/00 A2987 RMK A01 T00870002  RH  055%=      5-min Rain = 0
KBR1 221819Z 14009KT 09/00 A2987 RMK A01 T00880004  RH  055%=      5-min Rain = 0
KBR1 221820Z 15008KT 09/00 A2987 RMK A01 T00860003  RH  056%=      5-min Rain = 0
KBR1 221821Z 14009KT 09/01 A2987 RMK A01 T00880006  RH  056%=      5-min Rain = 0
KBR1 221822Z 13008KT 09/01 A2987 RMK A01 T00920006  RH  055%=      5-min Rain = 0
KBR1 221823Z 12012KT 09/01 A2987 RMK A01 T00920005  RH  054%=      5-min Rain = 0
KBR1 221824Z 13011KT 09/00 A2987 RMK A01 T00910003  RH  054%=      5-min Rain = 0
KBR1 221825Z 15008KT 09/00 A2987 RMK A01 T00900004  RH  055%=      5-min Rain = 0
KBR1 221826Z 15006KT 09/01 A2987 RMK A01 T00920005  RH  054%=      5-min Rain = 0
KBR1 221827Z 12009KT 09/01 A2987 RMK A01 T00930005  RH  054%=      5-min Rain = 0
KBR1 221828Z 11009KT 09/00 A2987 RMK A01 T00920003  RH  054%=      5-min Rain = 0
KBR1 221829Z 14013KT 10/01 A2987 RMK A01 T00960006  RH  053%=      5-min Rain = 0
KBR1 221830Z 14011KT 09/00 A2987 RMK A01 T009200-0  RH  052%=      5-min Rain = 0
KBR1 221831Z 15009KT 09/00 A2987 RMK A01 T008800-0  RH  054%=      5-min Rain = 0
KBR1 221832Z 14009KT 09/00 A2987 RMK A01 T00860001  RH  055%=      5-min Rain = 0
KBR1 221833Z 15011KT 09/00 A2987 RMK A01 T00880002  RH  055%=      5-min Rain = 0
KBR1 221834Z 14011KT 09/00 A2987 RMK A01 T00890002  RH  054%=      5-min Rain = 0
KBR1 221835Z 14012KT 09/00 A2987 RMK A01 T00930004  RH  054%=      5-min Rain = 0
KBR1 221836Z 14010KT 10/00 A2987 RMK A01 T00960004  RH  052%=      5-min Rain = 0
KBR1 221837Z 16006KT 10/00 A2986 RMK A01 T00960002  RH  052%=      5-min Rain = 0
KBR1 221838Z 14007KT 09/00 A2986 RMK A01 T00940001  RH  052%=      5-min Rain = 0
KBR1 221839Z 15009KT 10/00 A2986 RMK A01 T00950003  RH  053%=      5-min Rain = 0
KBR1 221840Z 15009KT 10/00 A2986 RMK A01 T00980004  RH  052%=      5-min Rain = 0
KBR1 221841Z 16009KT 10/00 A2986 RMK A01 T00970003  RH  052%=      5-min Rain = 0
KBR1 221842Z 17010KT 10/00 A2986 RMK A01 T00970001  RH  051%=      5-min Rain = 0
KBR1 221843Z 16009KT 10/M00 A2986 RMK A01 T00971001  RH  050%=      5-min Rain = 0
KBR1 221844Z 15012KT 10/00 A2986 RMK A01 T009600-0  RH  051%=      5-min Rain = 0
KBR1 221845Z 15010KT 10/00 A2986 RMK A01 T00970001  RH  051%=      5-min Rain = 0
KBR1 221846Z 15008KT 10/00 A2986 RMK A01 T00960000  RH  051%=      5-min Rain = 0
KBR1 221847Z 15008G13KT 10/00 A2986 RMK A01 T00970002  RH  052%=      5-min Rain = 0
KBR1 221848Z 14008KT 10/00 A2986 RMK A01 T00990002  RH  051%=      5-min Rain = 0
KBR1 221849Z 15009KT 10/00 A2985 RMK A01 T00990002  RH  051%=      5-min Rain = 0
KBR1 221850Z 15009KT 10/00 A2985 RMK A01 T01000003  RH  051%=      5-min Rain = 0
KBR1 221851Z 15009KT 10/00 A2985 RMK A01 T01040004  RH  050%=      5-min Rain = 0
KBR1 221852Z 13009KT 10/01 A2985 RMK A01 T01040005  RH  050%=      5-min Rain = 0
KBR1 221853Z 13006KT 11/01 A2985 RMK A01 T01050005  RH  050%=      5-min Rain = 0
KBR1 221854Z 15011KT 11/01 A2985 RMK A01 T01050005  RH  050%=      5-min Rain = 0
KBR1 221855Z 17010KT 10/00 A2985 RMK A01 T01040003  RH  050%=      5-min Rain = 0
KBR1 221856Z 16007KT 10/00 A2985 RMK A01 T00980001  RH  051%=      5-min Rain = 0
KBR1 221857Z 14008KT 10/00 A2985 RMK A01 T00970003  RH  052%=      5-min Rain = 0
KBR1 221858Z 13010KT 10/00 A2985 RMK A01 T00980003  RH  052%=      5-min Rain = 0
KBR1 221859Z 15011KT 10/00 A2985 RMK A01 T01010004  RH  051%=      5-min Rain = 0
KBR1 221900Z 16011KT 10/00 A2985 RMK A01 T01030003  RH  050%=      5-min Rain = 0
KBR1 221901Z 17011KT 11/00 A2985 RMK A01 T01070003  RH  049%=      5-min Rain = 0
KBR1 221902Z 18010KT 11/00 A2985 RMK A01 T01070001  RH  048%=      5-min Rain = 0
KBR1 221903Z 16007KT 11/M00 A2985 RMK A01 T01051001  RH  048%=      5-min Rain = 0
KBR1 221904Z 15007KT 10/00 A2985 RMK A01 T010400-0  RH  048%=      5-min Rain = 0
KBR1 221905Z 16008KT 10/00 A2985 RMK A01 T01040002  RH  049%=      5-min Rain = 0
KBR1 221906Z 14010G15KT 10/00 A2984 RMK A01 T01040004  RH  050%=      5-min Rain = 0
KBR1 221907Z 14011KT 11/01 A2984 RMK A01 T01060005  RH  050%=      5-min Rain = 0
KBR1 221908Z 16009KT 10/00 A2984 RMK A01 T01040002  RH  049%=      5-min Rain = 0
KBR1 221909Z 16011KT 10/00 A2984 RMK A01 T01030003  RH  050%=      5-min Rain = 0
KBR1 221910Z 15009KT 10/00 A2984 RMK A01 T01040001  RH  049%=      5-min Rain = 0
KBR1 221911Z 14008KT 10/M00 A2984 RMK A01 T01021001  RH  049%=      5-min Rain = 0
KBR1 221912Z 17009KT 10/00 A2984 RMK A01 T01040002  RH  049%=      5-min Rain = 0
KBR1 221913Z 15011KT 11/00 A2984 RMK A01 T01070003  RH  049%=      5-min Rain = 0
KBR1 221914Z 15011KT 11/01 A2984 RMK A01 T01100006  RH  048%=      5-min Rain = 0
KBR1 221915Z 14010KT 11/00 A2984 RMK A01 T01110004  RH  048%=      5-min Rain = 0
KBR1 221916Z 16010KT 11/00 A2984 RMK A01 T01070001  RH  048%=      5-min Rain = 0
KBR1 221917Z 14009KT 10/00 A2984 RMK A01 T01040001  RH  049%=      5-min Rain = 0
KBR1 221918Z 15009KT 10/00 A2983 RMK A01 T01030002  RH  049%=      5-min Rain = 0
KBR1 221919Z 15009KT 10/00 A2983 RMK A01 T01030003  RH  050%=      5-min Rain = 0
KBR1 221920Z 15008KT 11/00 A2983 RMK A01 T01050003  RH  049%=      5-min Rain = 0
KBR1 221921Z 15006KT 11/00 A2983 RMK A01 T01050002  RH  049%=      5-min Rain = 0
KBR1 221922Z 12007G12KT 10/00 A2983 RMK A01 T01040002  RH  049%=      5-min Rain = 0
KBR1 221923Z 15007KT 11/01 A2983 RMK A01 T01080005  RH  049%=      5-min Rain = 0
KBR1 221924Z 12006KT 11/00 A2983 RMK A01 T01090003  RH  048%=      5-min Rain = 0
KBR1 221925Z 16009KT 11/00 A2983 RMK A01 T01090003  RH  048%=      5-min Rain = 0
KBR1 221926Z 16006KT 11/00 A2983 RMK A01 T01080002  RH  048%=      5-min Rain = 0
KBR1 221927Z 12011KT 11/00 A2982 RMK A01 T01080003  RH  048%=      5-min Rain = 0
KBR1 221928Z 11009KT 11/00 A2982 RMK A01 T01080003  RH  048%=      5-min Rain = 0
KBR1 221929Z 14010KT 11/00 A2982 RMK A01 T01080003  RH  048%=      5-min Rain = 0
KBR1 221930Z 13010KT 11/00 A2982 RMK A01 T01090003  RH  048%=      5-min Rain = 0
KBR1 221931Z 13011KT 11/00 A2982 RMK A01 T010800-0  RH  047%=      5-min Rain = 0
KBR1 221932Z 14011KT 11/00 A2982 RMK A01 T010700-0  RH  047%=      5-min Rain = 0
KBR1 221933Z 15008KT 11/00 A2982 RMK A01 T010800-0  RH  047%=      5-min Rain = 0
KBR1 221934Z 14012KT 11/00 A2982 RMK A01 T01090004  RH  048%=      5-min Rain = 0
KBR1 221935Z 14009KT 11/00 A2982 RMK A01 T01110003  RH  047%=      5-min Rain = 0
KBR1 221936Z 14009KT 11/00 A2982 RMK A01 T01090002  RH  048%=      5-min Rain = 0
KBR1 221937Z 15010KT 11/00 A2982 RMK A01 T01100003  RH  047%=      5-min Rain = 0
KBR1 221938Z 17008KT 11/00 A2982 RMK A01 T01130003  RH  047%=      5-min Rain = 0
KBR1 221939Z 17008KT 11/M00 A2982 RMK A01 T01121001  RH  046%=      5-min Rain = 0
KBR1 221940Z 16008KT 11/00 A2981 RMK A01 T011300-0  RH  046%=      5-min Rain = 0
KBR1 221941Z 16010KT 12/00 A2981 RMK A01 T01150001  RH  045%=      5-min Rain = 0
KBR1 221942Z 17011KT 11/00 A2981 RMK A01 T01140000  RH  045%=      5-min Rain = 0
KBR1 221943Z 16008KT 12/00 A2981 RMK A01 T01160001  RH  045%=      5-min Rain = 0
KBR1 221944Z 15010KT 12/00 A2981 RMK A01 T01170002  RH  045%=      5-min Rain = 0
KBR1 221945Z 15010KT 12/00 A2981 RMK A01 T01160001  RH  045%=      5-min Rain = 0
KBR1 221946Z 14008KT 11/00 A2981 RMK A01 T01120000  RH  046%=      5-min Rain = 0
KBR1 221947Z 14010KT 11/00 A2981 RMK A01 T01110002  RH  047%=      5-min Rain = 0
KBR1 221948Z 12007KT 11/00 A2981 RMK A01 T01110003  RH  047%=      5-min Rain = 0
KBR1 221949Z 12006KT 11/00 A2981 RMK A01 T01090002  RH  048%=      5-min Rain = 0
KBR1 221950Z 13007KT 11/00 A2981 RMK A01 T01110003  RH  047%=      5-min Rain = 0
KBR1 221951Z 15010KT 11/00 A298 RMK A01 T01110002  RH  047%=      5-min Rain = 0
KBR1 221952Z 15010KT 11/00 A298 RMK A01 T01120001  RH  046%=      5-min Rain = 0
KBR1 221953Z 16005KT 11/M00 A298 RMK A01 T01111001  RH  046%=      5-min Rain = 0
KBR1 221954Z 16010KT 11/00 A298 RMK A01 T01110000  RH  046%=      5-min Rain = 0
KBR1 221955Z 16011KT 12/00 A298 RMK A01 T011500-0  RH  045%=      5-min Rain = 0
KBR1 221956Z 16010KT 12/M00 A298 RMK A01 T01151002  RH  045%=      5-min Rain = 0
KBR1 221957Z 16007KT 11/00 A298 RMK A01 T011400-0  RH  045%=      5-min Rain = 0
KBR1 221958Z 18005KT 11/00 A298 RMK A01 T01140000  RH  045%=      5-min Rain = 0
KBR1 221959Z 15009KT 11/00 A298 RMK A01 T01140002  RH  046%=      5-min Rain = 0
KBR1 222000Z 12008KT 12/00 A298 RMK A01 T01160002  RH  046%=      5-min Rain = 0
KBR1 222001Z 11008KT 11/00 A298 RMK A01 T01140001  RH  046%=      5-min Rain = 0
KBR1 222002Z 14008KT 12/00 A298 RMK A01 T01150003  RH  046%=      5-min Rain = 0
KBR1 222003Z 15007KT 12/01 A298 RMK A01 T01200005  RH  045%=      5-min Rain = 0
KBR1 222004Z 16007KT 12/00 A298 RMK A01 T01220003  RH  044%=      5-min Rain = 0
KBR1 222005Z 13008KT 12/00 A2979 RMK A01 T01200002  RH  044%=      5-min Rain = 0
KBR1 222006Z 12011KT 12/00 A2979 RMK A01 T01210004  RH  045%=      5-min Rain = 0
KBR1 222007Z 12010KT 12/00 A2979 RMK A01 T01210003  RH  044%=      5-min Rain = 0
KBR1 222008Z 13006KT 12/00 A2979 RMK A01 T01190003  RH  045%=      5-min Rain = 0
KBR1 222009Z 13007KT 12/00 A2979 RMK A01 T01200004  RH  045%=      5-min Rain = 0
KBR1 222010Z 16012KT 12/00 A2979 RMK A01 T012200-0  RH  043%=      5-min Rain = 0
KBR1 222011Z 16012KT 12/M00 A2979 RMK A01 T01221004  RH  042%=      5-min Rain = 0
KBR1 222012Z 16008KT 12/M00 A2979 RMK A01 T01201004  RH  042%=      5-min Rain = 0
KBR1 222013Z 15011KT 12/M00 A2979 RMK A01 T01201003  RH  043%=      5-min Rain = 0
KBR1 222014Z 16008KT 12/M00 A2979 RMK A01 T01221003  RH  042%=      5-min Rain = 0
KBR1 222015Z 14011KT 12/M00 A2979 RMK A01 T01221002  RH  042%=      5-min Rain = 0
KBR1 222016Z 12010KT 12/M00 A2979 RMK A01 T01221002  RH  042%=      5-min Rain = 0
KBR1 222017Z 14011KT 12/M00 A2979 RMK A01 T01241002  RH  042%=      5-min Rain = 0
KBR1 222018Z 14010G15KT 12/M00 A2979 RMK A01 T01241004  RH  041%=      5-min Rain = 0
KBR1 222019Z 14012KT 12/M01 A2978 RMK A01 T01221005  RH  041%=      5-min Rain = 0
KBR1 222020Z 14011KT 12/M00 A2978 RMK A01 T01231003  RH  042%=      5-min Rain = 0
KBR1 222021Z 15011KT 12/M00 A2978 RMK A01 T01211004  RH  042%=      5-min Rain = 0
KBR1 222022Z 14011KT 12/M00 A2978 RMK A01 T01211003  RH  042%=      5-min Rain = 0
KBR1 222023Z 15010KT 12/M00 A2978 RMK A01 T01231003  RH  042%=      5-min Rain = 0
KBR1 222024Z 15012KT 12/M00 A2978 RMK A01 T01231003  RH  042%=      5-min Rain = 0
KBR1 222025Z 16015KT 13/M00 A2978 RMK A01 T01281003  RH  041%=      5-min Rain = 0
KBR1 222026Z 15012KT 13/M01 A2978 RMK A01 T01281005  RH  040%=      5-min Rain = 0
KBR1 222027Z 15011KT 13/M01 A2978 RMK A01 T01291006  RH  039%=      5-min Rain = 0
KBR1 222028Z 15009KT 13/M01 A2978 RMK A01 T01281009  RH  039%=      5-min Rain = 0
KBR1 222029Z 13011KT 13/M01 A2978 RMK A01 T01261008  RH  040%=      5-min Rain = 0
KBR1 222030Z 14007KT 13/M01 A2978 RMK A01 T01271006  RH  040%=      5-min Rain = 0
KBR1 222031Z 15006KT 12/M01 A2978 RMK A01 T01241007  RH  040%=      5-min Rain = 0
KBR1 222032Z 15005KT 12/M01 A2977 RMK A01 T01221007  RH  041%=      5-min Rain = 0
KBR1 222033Z 15010KT 13/M00 A2977 RMK A01 T01251004  RH  041%=      5-min Rain = 0
KBR1 222034Z 15010KT 13/M01 A2977 RMK A01 T01301006  RH  039%=      5-min Rain = 0
KBR1 222035Z 16011KT 13/M01 A2977 RMK A01 T01321011  RH  037%=      5-min Rain = 0
KBR1 222036Z 16011KT 13/M02 A2977 RMK A01 T01321016  RH  036%=      5-min Rain = 0
KBR1 222037Z 16010KT 13/M02 A2977 RMK A01 T01311017  RH  036%=      5-min Rain = 0
KBR1 222038Z 15009KT 13/M02 A2977 RMK A01 T01311019  RH  035%=      5-min Rain = 0
KBR1 222039Z 14013KT 13/M02 A2977 RMK A01 T01311018  RH  036%=      5-min Rain = 0
KBR1 222040Z 14009KT 13/M02 A2977 RMK A01 T01311016  RH  036%=      5-min Rain = 0
KBR1 222041Z 15008KT 13/M01 A2977 RMK A01 T01301014  RH  037%=      5-min Rain = 0
KBR1 222042Z 16010KT 13/M01 A2977 RMK A01 T01301014  RH  037%=      5-min Rain = 0
KBR1 222043Z 17007KT 13/M01 A2977 RMK A01 T01311014  RH  037%=      5-min Rain = 0
KBR1 222044Z 15007KT 13/M02 A2977 RMK A01 T01311015  RH  036%=      5-min Rain = 0
KBR1 222045Z 13008KT 13/M01 A2977 RMK A01 T01321014  RH  036%=      5-min Rain = 0
KBR1 222046Z 13012KT 14/M02 A2977 RMK A01 T01371017  RH  034%=      5-min Rain = 0
KBR1 222047Z 13012KT 14/M02 A2976 RMK A01 T01381017  RH  034%=      5-min Rain = 0
KBR1 222048Z 17011KT 14/M02 A2976 RMK A01 T01421015  RH  034%=      5-min Rain = 0
KBR1 222049Z 17010KT 14/M02 A2976 RMK A01 T01431016  RH  034%=      5-min Rain = 0
KBR1 222050Z 16011KT 14/M02 A2976 RMK A01 T01411018  RH  033%=      5-min Rain = 0
KBR1 222051Z 16010KT 14/M02 A2976 RMK A01 T01401020  RH  033%=      5-min Rain = 0
KBR1 222052Z 16007KT 14/M02 A2976 RMK A01 T01361021  RH  034%=      5-min Rain = 0
KBR1 222053Z 15010KT 14/M02 A2976 RMK A01 T01351018  RH  035%=      5-min Rain = 0
KBR1 222054Z 13010KT 14/M02 A2976 RMK A01 T01381017  RH  034%=      5-min Rain = 0
KBR1 222055Z 14011KT 14/M02 A2976 RMK A01 T01401017  RH  034%=      5-min Rain = 0
KBR1 222056Z 16013KT 14/M02 A2976 RMK A01 T01411022  RH  032%=      5-min Rain = 0
KBR1 222057Z 16012KT 14/M02 A2976 RMK A01 T01401023  RH  032%=      5-min Rain = 0
KBR1 222058Z 17013KT 14/M02 A2976 RMK A01 T01401022  RH  033%=      5-min Rain = 0
KBR1 222059Z 15011KT 14/M03 A2976 RMK A01 T01381025  RH  032%=      5-min Rain = 0
KBR1 222100Z 15011KT 14/M02 A2976 RMK A01 T01371023  RH  033%=      5-min Rain = 0
KBR1 222101Z 16009KT 14/M02 A2976 RMK A01 T01371020  RH  034%=      5-min Rain = 0
KBR1 222102Z 16010KT 14/M02 A2976 RMK A01 T01391018  RH  034%=      5-min Rain = 0
KBR1 222103Z 16010KT 14/M02 A2976 RMK A01 T01401017  RH  034%=      5-min Rain = 0
KBR1 222104Z 14010KT 14/M02 A2976 RMK A01 T01411018  RH  033%=      5-min Rain = 0
KBR1 222105Z 14009KT 14/M02 A2976 RMK A01 T01401023  RH  032%=      5-min Rain = 0
KBR1 222106Z 14006KT 14/M02 A2975 RMK A01 T01391022  RH  033%=      5-min Rain = 0
KBR1 222107Z 14007KT 14/M02 A2975 RMK A01 T01391022  RH  033%=      5-min Rain = 0
KBR1 222108Z 16009KT 14/M02 A2975 RMK A01 T01401021  RH  033%=      5-min Rain = 0
KBR1 222109Z 14013KT 14/M02 A2975 RMK A01 T01441024  RH  031%=      5-min Rain = 0
KBR1 222110Z 15016KT 15/M03 A2975 RMK A01 T01471025  RH  030%=      5-min Rain = 0
KBR1 222111Z 15013KT 15/M03 A2975 RMK A01 T01471027  RH  030%=      5-min Rain = 0
KBR1 222112Z 16010KT 15/M03 A2975 RMK A01 T01461028  RH  030%=      5-min Rain = 0
KBR1 222113Z 15008KT 14/M03 A2975 RMK A01 T01441030  RH  030%=      5-min Rain = 0
KBR1 222114Z 15006KT 14/M03 A2975 RMK A01 T01431029  RH  030%=      5-min Rain = 0
KBR1 222115Z 13010KT 14/M03 A2975 RMK A01 T01431030  RH  030%=      5-min Rain = 0
KBR1 222116Z 14012KT 14/M03 A2975 RMK A01 T01441032  RH  030%=      5-min Rain = 0
KBR1 222117Z 13014KT 15/M03 A2975 RMK A01 T01461033  RH  029%=      5-min Rain = 0
KBR1 222118Z 13014KT 15/M04 A2975 RMK A01 T01471037  RH  028%=      5-min Rain = 0
KBR1 222119Z 14012KT 15/M04 A2975 RMK A01 T01451039  RH  028%=      5-min Rain = 0
KBR1 222120Z 14012KT 14/M04 A2975 RMK A01 T01441038  RH  028%=      5-min Rain = 0
KBR1 222121Z 14013KT 14/M04 A2975 RMK A01 T01441036  RH  029%=      5-min Rain = 0
KBR1 222122Z 15009KT 14/M03 A2975 RMK A01 T01441034  RH  029%=      5-min Rain = 0
KBR1 222123Z 13012KT 14/M03 A2975 RMK A01 T01441034  RH  029%=      5-min Rain = 0
KBR1 222124Z 14014KT 14/M03 A2975 RMK A01 T01441034  RH  029%=      5-min Rain = 0
KBR1 222125Z 15014KT 15/M03 A2975 RMK A01 T01461033  RH  029%=      5-min Rain = 0
KBR1 222126Z 14012KT 15/M03 A2974 RMK A01 T01461033  RH  029%=      5-min Rain = 0
KBR1 222127Z 14014KT 15/M03 A2974 RMK A01 T01471032  RH  029%=      5-min Rain = 0
KBR1 222128Z 15011KT 15/M03 A2974 RMK A01 T01461032  RH  029%=      5-min Rain = 0
KBR1 222129Z 14010KT 15/M03 A2974 RMK A01 T01461031  RH  029%=      5-min Rain = 0
KBR1 222130Z 13009KT 15/M03 A2974 RMK A01 T01451032  RH  029%=      5-min Rain = 0
KBR1 222131Z 15013G19KT 15/M03 A2974 RMK A01 T01461031  RH  029%=      5-min Rain = 0
KBR1 222132Z 14016KT 15/M04 A2974 RMK A01 T01491036  RH  028%=      5-min Rain = 0
KBR1 222133Z 14013KT 15/M04 A2974 RMK A01 T01481039  RH  027%=      5-min Rain = 0
KBR1 222134Z 14011KT 15/M03 A2974 RMK A01 T01481034  RH  028%=      5-min Rain = 0
KBR1 222135Z 13010KT 15/M04 A2974 RMK A01 T01481035  RH  028%=      5-min Rain = 0
KBR1 222136Z 13012KT 15/M04 A2974 RMK A01 T01461036  RH  028%=      5-min Rain = 0
KBR1 222137Z 13015KT 15/M04 A2974 RMK A01 T01471036  RH  028%=      5-min Rain = 0
KBR1 222138Z 12015KT 15/M04 A2974 RMK A01 T01481038  RH  028%=      5-min Rain = 0
KBR1 222139Z 12011KT 15/M04 A2974 RMK A01 T01461039  RH  028%=      5-min Rain = 0
KBR1 222140Z 12012KT 15/M04 A2974 RMK A01 T01471038  RH  028%=      5-min Rain = 0
KBR1 222141Z 12011KT 15/M04 A2974 RMK A01 T01481036  RH  028%=      5-min Rain = 0
KBR1 222142Z 12009KT 15/M04 A2973 RMK A01 T01491035  RH  028%=      5-min Rain = 0
KBR1 222143Z 14015G24KT 15/M04 A2973 RMK A01 T01501037  RH  027%=      5-min Rain = 0
KBR1 222144Z 17012KT 15/M04 A2974 RMK A01 T01511042  RH  026%=      5-min Rain = 0
KBR1 222145Z 17009G14KT 15/M04 A2974 RMK A01 T01501044  RH  026%=      5-min Rain = 0
KBR1 222146Z 17013KT 15/M04 A2974 RMK A01 T01501043  RH  026%=      5-min Rain = 0
KBR1 222147Z 17012KT 15/M04 A2974 RMK A01 T01511042  RH  026%=      5-min Rain = 0
KBR1 222148Z 16013KT 15/M04 A2974 RMK A01 T01511044  RH  026%=      5-min Rain = 0
KBR1 222149Z 16013KT 15/M05 A2974 RMK A01 T01501046  RH  025%=      5-min Rain = 0
KBR1 222150Z 15012KT 15/M05 A2974 RMK A01 T01511047  RH  025%=      5-min Rain = 0
KBR1 222151Z 17015KT 15/M05 A2974 RMK A01 T01511047  RH  025%=      5-min Rain = 0
KBR1 222152Z 17013KT 15/M05 A2974 RMK A01 T01521046  RH  025%=      5-min Rain = 0
KBR1 222153Z 18015KT 15/M05 A2973 RMK A01 T01501047  RH  025%=      5-min Rain = 0
KBR1 222154Z 18012KT 15/M05 A2973 RMK A01 T01511051  RH  024%=      5-min Rain = 0
KBR1 222155Z 15013KT 15/M05 A2974 RMK A01 T01531048  RH  025%=      5-min Rain = 0
KBR1 222156Z 16011KT 16/M05 A2974 RMK A01 T01551048  RH  024%=      5-min Rain = 0
KBR1 222157Z 15015KT 16/M05 A2974 RMK A01 T01561048  RH  024%=      5-min Rain = 0
KBR1 222158Z 16011KT 16/M05 A2974 RMK A01 T01551049  RH  024%=      5-min Rain = 0
KBR1 222159Z 16010KT 15/M05 A2974 RMK A01 T01531050  RH  024%=      5-min Rain = 0
KBR1 222200Z 14005KT 15/M05 A2974 RMK A01 T01511051  RH  024%=      5-min Rain = 0
KBR1 222201Z 14011KT 15/M05 A2973 RMK A01 T01521048  RH  025%=      5-min Rain = 0
KBR1 222202Z 14016G22KT 16/M05 A2973 RMK A01 T01551047  RH  025%=      5-min Rain = 0
KBR1 222203Z 16019KT 16/M05 A2973 RMK A01 T01561047  RH  024%=      5-min Rain = 0
KBR1 222204Z 16016KT 15/M05 A2973 RMK A01 T01541048  RH  024%=      5-min Rain = 0
KBR1 222205Z 15013KT 15/M05 A2974 RMK A01 T01531047  RH  025%=      5-min Rain = 0
KBR1 222206Z 16010KT 15/M05 A2974 RMK A01 T01521048  RH  025%=      5-min Rain = 0
KBR1 222207Z 16009KT 15/M05 A2973 RMK A01 T01511046  RH  025%=      5-min Rain = 0
KBR1 222208Z 16008KT 15/M05 A2973 RMK A01 T01521047  RH  025%=      5-min Rain = 0
KBR1 222209Z 16007KT 15/M05 A2973 RMK A01 T01531046  RH  025%=      5-min Rain = 0
KBR1 222210Z 18010KT 15/M05 A2973 RMK A01 T01541045  RH  025%=      5-min Rain = 0
KBR1 222211Z 19012KT 16/M05 A2973 RMK A01 T01551046  RH  025%=      5-min Rain = 0
KBR1 222212Z 17008KT 15/M05 A2973 RMK A01 T01541047  RH  025%=      5-min Rain = 0
KBR1 222213Z 18010KT 16/M04 A2973 RMK A01 T01571043  RH  025%=      5-min Rain = 0
KBR1 222214Z 17010KT 16/M05 A2973 RMK A01 T01571045  RH  025%=      5-min Rain = 0
KBR1 222215Z 17013KT 15/M04 A2973 RMK A01 T01541044  RH  025%=      5-min Rain = 0
KBR1 222216Z 16012KT 16/M04 A2973 RMK A01 T01561044  RH  025%=      5-min Rain = 0
KBR1 222217Z 17014KT 16/M04 A2973 RMK A01 T01561044  RH  025%=      5-min Rain = 0
KBR1 222218Z 16013KT 16/M04 A2973 RMK A01 T01571043  RH  025%=      5-min Rain = 0
KBR1 222219Z 15013KT 16/M04 A2973 RMK A01 T01561042  RH  025%=      5-min Rain = 0
KBR1 222220Z 14015KT 16/M04 A2973 RMK A01 T01551041  RH  026%=      5-min Rain = 0
KBR1 222221Z 14012KT 15/M04 A2973 RMK A01 T01531040  RH  026%=      5-min Rain = 0
KBR1 222222Z 16011KT 15/M04 A2973 RMK A01 T01531040  RH  026%=      5-min Rain = 0
KBR1 222223Z 14013KT 15/M04 A2973 RMK A01 T01511040  RH  026%=      5-min Rain = 0
KBR1 222224Z 15013KT 15/M04 A2973 RMK A01 T01521040  RH  026%=      5-min Rain = 0
KBR1 222225Z 16014KT 15/M04 A2973 RMK A01 T01531041  RH  026%=      5-min Rain = 0
KBR1 222226Z 15015KT 15/M04 A2973 RMK A01 T01541043  RH  025%=      5-min Rain = 0
KBR1 222227Z 14016KT 16/M04 A2973 RMK A01 T01551041  RH  026%=      5-min Rain = 0
KBR1 222228Z 14018KT 15/M04 A2973 RMK A01 T01541040  RH  026%=      5-min Rain = 0
KBR1 222229Z 15014KT 15/M04 A2973 RMK A01 T01531040  RH  026%=      5-min Rain = 0
KBR1 222230Z 14014KT 15/M04 A2973 RMK A01 T01531039  RH  026%=      5-min Rain = 0
KBR1 222231Z 15016KT 15/M04 A2973 RMK A01 T01541039  RH  026%=      5-min Rain = 0
KBR1 222232Z 15014KT 15/M04 A2973 RMK A01 T01531041  RH  026%=      5-min Rain = 0
KBR1 222233Z 14013KT 15/M04 A2973 RMK A01 T01521040  RH  026%=      5-min Rain = 0
KBR1 222234Z 15015KT 15/M04 A2973 RMK A01 T01511040  RH  026%=      5-min Rain = 0
KBR1 222235Z 16014KT 15/M04 A2973 RMK A01 T01511041  RH  026%=      5-min Rain = 0
KBR1 222236Z 15014G20KT 15/M04 A2973 RMK A01 T01511042  RH  026%=      5-min Rain = 0
KBR1 222237Z 15016KT 15/M04 A2973 RMK A01 T01521043  RH  026%=      5-min Rain = 0
KBR1 222238Z 16015KT 15/M05 A2973 RMK A01 T01531045  RH  025%=      5-min Rain = 0
KBR1 222239Z 15015KT 15/M04 A2973 RMK A01 T01531044  RH  025%=      5-min Rain = 0
KBR1 222240Z 18014KT 15/M05 A2973 RMK A01 T01541045  RH  025%=      5-min Rain = 0
KBR1 222241Z 19015KT 15/M05 A2973 RMK A01 T01541048  RH  024%=      5-min Rain = 0
KBR1 222242Z 18011KT 15/M05 A2973 RMK A01 T01541049  RH  024%=      5-min Rain = 0
KBR1 222243Z 18010KT 15/M05 A2973 RMK A01 T01541048  RH  025%=      5-min Rain = 0
KBR1 222244Z 17013KT 16/M05 A2973 RMK A01 T01551047  RH  025%=      5-min Rain = 0
KBR1 222245Z 17015KT 16/M05 A2973 RMK A01 T01551047  RH  024%=      5-min Rain = 0
KBR1 222246Z 17016KT 15/M05 A2973 RMK A01 T01541048  RH  024%=      5-min Rain = 0
KBR1 222247Z 17015KT 15/M05 A2973 RMK A01 T01531048  RH  025%=      5-min Rain = 0
KBR1 222248Z 17015KT 15/M05 A2972 RMK A01 T01521048  RH  025%=      5-min Rain = 0
KBR1 222249Z 16017KT 15/M05 A2972 RMK A01 T01531046  RH  025%=      5-min Rain = 0
KBR1 222250Z 16015KT 15/M05 A2972 RMK A01 T01531045  RH  025%=      5-min Rain = 0
KBR1 222251Z 17011KT 15/M05 A2972 RMK A01 T01521045  RH  025%=      5-min Rain = 0
KBR1 222252Z 15011KT 15/M04 A2972 RMK A01 T01531044  RH  025%=      5-min Rain = 0
KBR1 222253Z 16013KT 15/M04 A2972 RMK A01 T01531044  RH  025%=      5-min Rain = 0
KBR1 222254Z 15014KT 15/M04 A2972 RMK A01 T01531044  RH  025%=      5-min Rain = 0
KBR1 222255Z 16014KT 15/M04 A2972 RMK A01 T01541044  RH  025%=      5-min Rain = 0
KBR1 222256Z 18013KT 15/M05 A2972 RMK A01 T01541045  RH  025%=      5-min Rain = 0
KBR1 222257Z 17013KT 15/M05 A2972 RMK A01 T01541046  RH  025%=      5-min Rain = 0
KBR1 222258Z 15014KT 16/M04 A2972 RMK A01 T01561044  RH  025%=      5-min Rain = 0
KBR1 222259Z 14012KT 15/M05 A2972 RMK A01 T01541045  RH  025%=      5-min Rain = 0
KBR1 222300Z 16012KT 15/M04 A2972 RMK A01 T01541044  RH  025%=      5-min Rain = 0
KBR1 222301Z 15014KT 16/M04 A2972 RMK A01 T01561043  RH  025%=      5-min Rain = 0
KBR1 222302Z 15011KT 16/M04 A2972 RMK A01 T01551044  RH  025%=      5-min Rain = 0
KBR1 222303Z 16010KT 16/M04 A2972 RMK A01 T01561043  RH  025%=      5-min Rain = 0
KBR1 222304Z 17013G18KT 16/M04 A2972 RMK A01 T01571044  RH  025%=      5-min Rain = 0
KBR1 222305Z 17011KT 16/M05 A2972 RMK A01 T01561045  RH  025%=      5-min Rain = 0
KBR1 222306Z 16015KT 16/M04 A2972 RMK A01 T01561044  RH  025%=      5-min Rain = 0
KBR1 222307Z 17015G20KT 16/M05 A2972 RMK A01 T01561046  RH  025%=      5-min Rain = 0
KBR1 222308Z 18017KT 16/M05 A2972 RMK A01 T01561047  RH  024%=      5-min Rain = 0
KBR1 222309Z 18015KT 15/M05 A2972 RMK A01 T01541049  RH  024%=      5-min Rain = 0
KBR1 222310Z 17015KT 15/M05 A2972 RMK A01 T01521049  RH  025%=      5-min Rain = 0
KBR1 222311Z 16012KT 15/M05 A2972 RMK A01 T01511048  RH  025%=      5-min Rain = 0
KBR1 222312Z 17012KT 15/M05 A2972 RMK A01 T01521046  RH  025%=      5-min Rain = 0
KBR1 222313Z 17014KT 15/M05 A2972 RMK A01 T01531046  RH  025%=      5-min Rain = 0
KBR1 222314Z 17014KT 15/M05 A2972 RMK A01 T01531046  RH  025%=      5-min Rain = 0
KBR1 222315Z 17015KT 15/M05 A2972 RMK A01 T01521047  RH  025%=      5-min Rain = 0
KBR1 222316Z 17016KT 15/M05 A2972 RMK A01 T01511045  RH  026%=      5-min Rain = 0
KBR1 222317Z 17014KT 15/M05 A2972 RMK A01 T01501045  RH  026%=      5-min Rain = 0
KBR1 222318Z 17014KT 15/M04 A2972 RMK A01 T01491042  RH  026%=      5-min Rain = 0
KBR1 222319Z 16014KT 15/M04 A2972 RMK A01 T01491040  RH  027%=      5-min Rain = 0
KBR1 222320Z 15014KT 15/M04 A2972 RMK A01 T01501038  RH  027%=      5-min Rain = 0
KBR1 222321Z 16017KT 15/M04 A2972 RMK A01 T01501036  RH  027%=      5-min Rain = 0
KBR1 222322Z 16017KT 15/M04 A2972 RMK A01 T01481035  RH  028%=      5-min Rain = 0
KBR1 222323Z 15015KT 15/M03 A2972 RMK A01 T01481034  RH  028%=      5-min Rain = 0
KBR1 222324Z 16016KT 15/M03 A2972 RMK A01 T01471034  RH  028%=      5-min Rain = 0
KBR1 222325Z 15014KT 15/M03 A2972 RMK A01 T01471034  RH  029%=      5-min Rain = 0
KBR1 222326Z 16014KT 15/M03 A2972 RMK A01 T01461032  RH  029%=      5-min Rain = 0
KBR1 222327Z 16012G17KT 15/M03 A2972 RMK A01 T01461032  RH  029%=      5-min Rain = 0
KBR1 222328Z 15012KT 15/M03 A2972 RMK A01 T01471031  RH  029%=      5-min Rain = 0
KBR1 222329Z 15013KT 15/M03 A2972 RMK A01 T01481031  RH  029%=      5-min Rain = 0
KBR1 222330Z 15016KT 15/M03 A2972 RMK A01 T01481030  RH  029%=      5-min Rain = 0
KBR1 222331Z 15019KT 15/M03 A2972 RMK A01 T01461028  RH  030%=      5-min Rain = 0
KBR1 222332Z 15017KT 15/M03 A2972 RMK A01 T01451028  RH  030%=      5-min Rain = 0
KBR1 222333Z 15016KT 14/M03 A2972 RMK A01 T01441028  RH  030%=      5-min Rain = 0
KBR1 222334Z 15017KT 15/M03 A2972 RMK A01 T01451031  RH  030%=      5-min Rain = 0
KBR1 222335Z 15017G22KT 14/M03 A2972 RMK A01 T01441033  RH  029%=      5-min Rain = 0
KBR1 222336Z 15018G23KT 14/M03 A2971 RMK A01 T01441032  RH  029%=      5-min Rain = 0
KBR1 222337Z 15016KT 14/M03 A2971 RMK A01 T01441031  RH  030%=      5-min Rain = 0
KBR1 222338Z 15014G22KT 14/M03 A2971 RMK A01 T01441030  RH  030%=      5-min Rain = 0
KBR1 222339Z 15015KT 14/M03 A2971 RMK A01 T01441030  RH  030%=      5-min Rain = 0
KBR1 222340Z 15015KT 14/M03 A2971 RMK A01 T01441028  RH  030%=      5-min Rain = 0
KBR1 222341Z 14015KT 14/M03 A2971 RMK A01 T01431026  RH  031%=      5-min Rain = 0
KBR1 222342Z 15014KT 14/M03 A2971 RMK A01 T01431026  RH  031%=      5-min Rain = 0
KBR1 222343Z 15014KT 14/M03 A2971 RMK A01 T01421026  RH  031%=      5-min Rain = 0
KBR1 222344Z 15016KT 14/M03 A2971 RMK A01 T01421029  RH  030%=      5-min Rain = 0
KBR1 222345Z 15014KT 14/M03 A2971 RMK A01 T01421031  RH  030%=      5-min Rain = 0
KBR1 222346Z 14014KT 14/M03 A2971 RMK A01 T01421030  RH  030%=      5-min Rain = 0
KBR1 222347Z 14012KT 14/M03 A2971 RMK A01 T01421028  RH  031%=      5-min Rain = 0
KBR1 222348Z 14012G17KT 14/M03 A2971 RMK A01 T01411029  RH  031%=      5-min Rain = 0
KBR1 222349Z 15018KT 14/M03 A2971 RMK A01 T01411029  RH  031%=      5-min Rain = 0
KBR1 222350Z 15016KT 14/M03 A2971 RMK A01 T01401032  RH  030%=      5-min Rain = 0
KBR1 222351Z 15016KT 14/M04 A2971 RMK A01 T01381035  RH  030%=      5-min Rain = 0
KBR1 222352Z 16014KT 14/M04 A2971 RMK A01 T01371038  RH  030%=      5-min Rain = 0
KBR1 222353Z 16013KT 14/M04 A2971 RMK A01 T01361039  RH  030%=      5-min Rain = 0
KBR1 222354Z 16015G20KT 13/M04 A2971 RMK A01 T01341040  RH  030%=      5-min Rain = 0
KBR1 222355Z 16015KT 13/M04 A2971 RMK A01 T01331041  RH  030%=      5-min Rain = 0
KBR1 222356Z 16016KT 13/M04 A2971 RMK A01 T01321041  RH  030%=      5-min Rain = 0
KBR1 222357Z 16013KT 13/M04 A2971 RMK A01 T01321040  RH  030%=      5-min Rain = 0
KBR1 222358Z 16014KT 13/M04 A2971 RMK A01 T01331040  RH  030%=      5-min Rain = 0
KBR1 222359Z 16012KT 13/M04 A2971 RMK A01 T01331040  RH  030%=      5-min Rain = 0
KBR1 230000Z 16012KT 13/M04 A2971 RMK A01 T01331040  RH  030%=      5-min Rain = 0
KBR1 230001Z 16014KT 13/M04 A2971 RMK A01 T01331040  RH  030%=      5-min Rain = 0
KBR1 230002Z 16013KT 13/M04 A2971 RMK A01 T01331040  RH  030%=      5-min Rain = 0
KBR1 230003Z 16013KT 13/M04 A2971 RMK A01 T01321040  RH  030%=      5-min Rain = 0
KBR1 230004Z 16014KT 13/M04 A2971 RMK A01 T01321040  RH  030%=      5-min Rain = 0
KBR1 230005Z 15013KT 13/M04 A2971 RMK A01 T01311040  RH  030%=      5-min Rain = 0
KBR1 230006Z 15012KT 13/M04 A2971 RMK A01 T01301040  RH  030%=      5-min Rain = 0
KBR1 230007Z 14012KT 13/M04 A2971 RMK A01 T01291040  RH  031%=      5-min Rain = 0
KBR1 230008Z 14013KT 13/M04 A2971 RMK A01 T01281039  RH  031%=      5-min Rain = 0
KBR1 230009Z 14015KT 13/M04 A2971 RMK A01 T01281039  RH  031%=      5-min Rain = 0
KBR1 230010Z 15013KT 13/M04 A2971 RMK A01 T01281038  RH  031%=      5-min Rain = 0
KBR1 230011Z 15013KT 13/M04 A2971 RMK A01 T01281038  RH  031%=      5-min Rain = 0
KBR1 230012Z 15013KT 13/M04 A2971 RMK A01 T01271038  RH  031%=      5-min Rain = 0
KBR1 230013Z 15012KT 13/M04 A2971 RMK A01 T01271038  RH  031%=      5-min Rain = 0
KBR1 230014Z 15013KT 13/M04 A2971 RMK A01 T01271038  RH  032%=      5-min Rain = 0
KBR1 230015Z 15012KT 13/M04 A2971 RMK A01 T01261038  RH  032%=      5-min Rain = 0
KBR1 230016Z 14012KT 13/M04 A2971 RMK A01 T01251038  RH  032%=      5-min Rain = 0
KBR1 230017Z 15011KT 12/M04 A2971 RMK A01 T01241038  RH  032%=      5-min Rain = 0
KBR1 230018Z 14013KT 12/M04 A2971 RMK A01 T01231038  RH  032%=      5-min Rain = 0
KBR1 230019Z 15012KT 12/M04 A2971 RMK A01 T01231037  RH  032%=      5-min Rain = 0
KBR1 230020Z 15011KT 12/M04 A2971 RMK A01 T01231037  RH  033%=      5-min Rain = 0
KBR1 230021Z 15010KT 12/M04 A2971 RMK A01 T01221037  RH  033%=      5-min Rain = 0
KBR1 230022Z 15010KT 12/M04 A2971 RMK A01 T01211037  RH  033%=      5-min Rain = 0
KBR1 230023Z 15010KT 12/M04 A2971 RMK A01 T01201037  RH  033%=      5-min Rain = 0
KBR1 230024Z 15012KT 12/M04 A2971 RMK A01 T01191036  RH  034%=      5-min Rain = 0
KBR1 230025Z 15012KT 12/M04 A2971 RMK A01 T01201035  RH  034%=      5-min Rain = 0
KBR1 230026Z 15012KT 12/M04 A2971 RMK A01 T01201035  RH  034%=      5-min Rain = 0
KBR1 230027Z 15013KT 12/M04 A2971 RMK A01 T01201035  RH  034%=      5-min Rain = 0
KBR1 230028Z 15012KT 12/M04 A2971 RMK A01 T01201035  RH  034%=      5-min Rain = 0
KBR1 230029Z 15012KT 12/M04 A2971 RMK A01 T01201035  RH  034%=      5-min Rain = 0
KBR1 230030Z 15011KT 12/M04 A2971 RMK A01 T01201035  RH  034%=      5-min Rain = 0
KBR1 230031Z 15011KT 12/M04 A2971 RMK A01 T01191035  RH  034%=      5-min Rain = 0
KBR1 230032Z 15010KT 12/M04 A2971 RMK A01 T01191035  RH  034%=      5-min Rain = 0
KBR1 230033Z 15010KT 12/M04 A2971 RMK A01 T01181035  RH  034%=      5-min Rain = 0
KBR1 230034Z 15009KT 12/M04 A2971 RMK A01 T01171035  RH  034%=      5-min Rain = 0
KBR1 230035Z 15009KT 12/M04 A2971 RMK A01 T01161035  RH  035%=      5-min Rain = 0
KBR1 230036Z 16008KT 11/M04 A2971 RMK A01 T01141036  RH  035%=      5-min Rain = 0
KBR1 230037Z 15009KT 11/M04 A2971 RMK A01 T01131036  RH  035%=      5-min Rain = 0
KBR1 230038Z 15009KT 11/M04 A2971 RMK A01 T01131035  RH  035%=      5-min Rain = 0
KBR1 230039Z 15010KT 11/M04 A2971 RMK A01 T01131035  RH  035%=      5-min Rain = 0
KBR1 230040Z 15010KT 11/M04 A2971 RMK A01 T01131035  RH  035%=      5-min Rain = 0
KBR1 230041Z 15009KT 11/M03 A2971 RMK A01 T01141034  RH  035%=      5-min Rain = 0
KBR1 230042Z 15008KT 11/M03 A2971 RMK A01 T01141034  RH  035%=      5-min Rain = 0
KBR1 230043Z 15008KT 11/M04 A2971 RMK A01 T01131035  RH  035%=      5-min Rain = 0
KBR1 230044Z 14008KT 11/M04 A2971 RMK A01 T01121036  RH  035%=      5-min Rain = 0
KBR1 230045Z 14008KT 11/M04 A2971 RMK A01 T01111036  RH  036%=      5-min Rain = 0
KBR1 230046Z 14008KT 11/M04 A2971 RMK A01 T01101036  RH  036%=      5-min Rain = 0
KBR1 230047Z 14008KT 11/M04 A2971 RMK A01 T01091036  RH  036%=      5-min Rain = 0
KBR1 230048Z 14009KT 11/M04 A2971 RMK A01 T01081035  RH  036%=      5-min Rain = 0
KBR1 230049Z 14009KT 11/M04 A2971 RMK A01 T01081035  RH  037%=      5-min Rain = 0
KBR1 230050Z 14008KT 11/M04 A2971 RMK A01 T01071035  RH  037%=      5-min Rain = 0
KBR1 230051Z 14008KT 11/M03 A2971 RMK A01 T01071034  RH  037%=      5-min Rain = 0
KBR1 230052Z 14008KT 11/M03 A2971 RMK A01 T01071034  RH  037%=      5-min Rain = 0
KBR1 230053Z 13008KT 11/M03 A2971 RMK A01 T01071034  RH  037%=      5-min Rain = 0
KBR1 230054Z 13008KT 11/M03 A2971 RMK A01 T01061034  RH  037%=      5-min Rain = 0
KBR1 230055Z 13008KT 10/M04 A2971 RMK A01 T01041035  RH  037%=      5-min Rain = 0
KBR1 230056Z 13009KT 10/M04 A2971 RMK A01 T01031035  RH  038%=      5-min Rain = 0
KBR1 230057Z 12009KT 10/M04 A2971 RMK A01 T01011035  RH  038%=      5-min Rain = 0
KBR1 230058Z 12009KT 10/M03 A2971 RMK A01 T01001034  RH  039%=      5-min Rain = 0
KBR1 230059Z 12009KT 10/M03 A2971 RMK A01 T01001033  RH  039%=      5-min Rain = 0
KBR1 230100Z 12010KT 10/M03 A2971 RMK A01 T00991033  RH  039%=      5-min Rain = 0
KBR1 230101Z 12009KT 10/M03 A2971 RMK A01 T01001032  RH  039%=      5-min Rain = 0
KBR1 230102Z 12009KT 10/M03 A2971 RMK A01 T00991032  RH  040%=      5-min Rain = 0
KBR1 230103Z 12011KT 10/M03 A2971 RMK A01 T00981030  RH  041%=      5-min Rain = 0
KBR1 230104Z 12010KT 10/M03 A2971 RMK A01 T00981027  RH  041%=      5-min Rain = 0
KBR1 230105Z 12009KT 10/M03 A2971 RMK A01 T00981025  RH  042%=      5-min Rain = 0
KBR1 230106Z 12011KT 10/M02 A2971 RMK A01 T00981021  RH  043%=      5-min Rain = 0
KBR1 230107Z 12011KT 10/M02 A2971 RMK A01 T00981018  RH  044%=      5-min Rain = 0
KBR1 230108Z 12011KT 10/M02 A2971 RMK A01 T00981015  RH  045%=      5-min Rain = 0
KBR1 230109Z 12011KT 10/M01 A2971 RMK A01 T00981014  RH  046%=      5-min Rain = 0
KBR1 230110Z 12011KT 10/M01 A2971 RMK A01 T00981012  RH  046%=      5-min Rain = 0
KBR1 230111Z 13010KT 10/M01 A2971 RMK A01 T00981011  RH  046%=      5-min Rain = 0
KBR1 230112Z 12010KT 10/M01 A2971 RMK A01 T00971011  RH  047%=      5-min Rain = 0
KBR1 230113Z 12010KT 10/M01 A2971 RMK A01 T00971009  RH  048%=      5-min Rain = 0
KBR1 230114Z 12009KT 10/M01 A2971 RMK A01 T00961009  RH  048%=      5-min Rain = 0
KBR1 230115Z 12010KT 10/M01 A2971 RMK A01 T00951009  RH  048%=      5-min Rain = 0
KBR1 230116Z 12010KT 10/M01 A2971 RMK A01 T00951008  RH  049%=      5-min Rain = 0
KBR1 230117Z 12009KT 09/M01 A2971 RMK A01 T00941008  RH  049%=      5-min Rain = 0
KBR1 230118Z 12010KT 09/M01 A2971 RMK A01 T00931008  RH  049%=      5-min Rain = 0
KBR1 230119Z 12009KT 09/M01 A2971 RMK A01 T00931008  RH  049%=      5-min Rain = 0
KBR1 230120Z 12009KT 09/M01 A2971 RMK A01 T00911009  RH  050%=      5-min Rain = 0
KBR1 230121Z 12009KT 09/M01 A2971 RMK A01 T00901009  RH  050%=      5-min Rain = 0
KBR1 230122Z 12009KT 09/M01 A2971 RMK A01 T00901008  RH  050%=      5-min Rain = 0
KBR1 230123Z 12008KT 09/M01 A2971 RMK A01 T00891009  RH  051%=      5-min Rain = 0
KBR1 230124Z 12008KT 09/M01 A2971 RMK A01 T00871009  RH  051%=      5-min Rain = 0
KBR1 230125Z 11008KT 09/M01 A2971 RMK A01 T00871009  RH  051%=      5-min Rain = 0
KBR1 230126Z 11008KT 09/M01 A2971 RMK A01 T00851010  RH  051%=      5-min Rain = 0
KBR1 230127Z 11009KT 08/M01 A2971 RMK A01 T00841010  RH  052%=      5-min Rain = 0
KBR1 230128Z 11009KT 08/M01 A2971 RMK A01 T00831009  RH  052%=      5-min Rain = 0
KBR1 230129Z 11009KT 08/M01 A2971 RMK A01 T00831009  RH  052%=      5-min Rain = 0
KBR1 230130Z 12009KT 08/M01 A2971 RMK A01 T00821009  RH  053%=      5-min Rain = 0
KBR1 230131Z 11009KT 08/M01 A2971 RMK A01 T00821008  RH  053%=      5-min Rain = 0
KBR1 230132Z 11009KT 08/M01 A2971 RMK A01 T00821007  RH  053%=      5-min Rain = 0
KBR1 230133Z 12009KT 08/M01 A2971 RMK A01 T00821007  RH  053%=      5-min Rain = 0
KBR1 230134Z 11009KT 08/M01 A2971 RMK A01 T00821007  RH  053%=      5-min Rain = 0
KBR1 230135Z 12009KT 08/M01 A2971 RMK A01 T00831006  RH  053%=      5-min Rain = 0
KBR1 230136Z 12009KT 08/M01 A2971 RMK A01 T00831006  RH  053%=      5-min Rain = 0
KBR1 230137Z 12011KT 08/M01 A2971 RMK A01 T00831006  RH  054%=      5-min Rain = 0
KBR1 230138Z 12010KT 08/M01 A2971 RMK A01 T00831005  RH  054%=      5-min Rain = 0
KBR1 230139Z 12009KT 08/M01 A2971 RMK A01 T00831005  RH  054%=      5-min Rain = 0
KBR1 230140Z 11011KT 08/M01 A2971 RMK A01 T00831005  RH  054%=      5-min Rain = 0
KBR1 230141Z 12010KT 08/M00 A2971 RMK A01 T00831004  RH  054%=      5-min Rain = 0
KBR1 230142Z 12010KT 08/M00 A2971 RMK A01 T00841004  RH  054%=      5-min Rain = 0
KBR1 230143Z 12009KT 08/M00 A2971 RMK A01 T00841004  RH  054%=      5-min Rain = 0
KBR1 230144Z 12009KT 08/M00 A2971 RMK A01 T00841004  RH  054%=      5-min Rain = 0
KBR1 230145Z 12009KT 08/M00 A2971 RMK A01 T00831004  RH  054%=      5-min Rain = 0
KBR1 230146Z 12009KT 08/M00 A2971 RMK A01 T00831004  RH  055%=      5-min Rain = 0
KBR1 230147Z 12009KT 08/M00 A2971 RMK A01 T00831003  RH  055%=      5-min Rain = 0
KBR1 230148Z 11008KT 08/M00 A2971 RMK A01 T00831003  RH  055%=      5-min Rain = 0
KBR1 230149Z 11008KT 08/M00 A2971 RMK A01 T00821004  RH  055%=      5-min Rain = 0
KBR1 230150Z 12009KT 08/M00 A2971 RMK A01 T00801004  RH  055%=      5-min Rain = 0
KBR1 230151Z 11009KT 08/M00 A2971 RMK A01 T00801004  RH  055%=      5-min Rain = 0
KBR1 230152Z 12010KT 08/M00 A2971 RMK A01 T00811004  RH  055%=      5-min Rain = 0
KBR1 230153Z 12011KT 08/M00 A2971 RMK A01 T00811003  RH  055%=      5-min Rain = 0
KBR1 230154Z 12010KT 08/M00 A2971 RMK A01 T00811003  RH  055%=      5-min Rain = 0
KBR1 230155Z 12011KT 08/M00 A2971 RMK A01 T00811003  RH  055%=      5-min Rain = 0
KBR1 230156Z 12011KT 08/M00 A2971 RMK A01 T00811003  RH  056%=      5-min Rain = 0
KBR1 230157Z 11011KT 08/M00 A2971 RMK A01 T00821002  RH  055%=      5-min Rain = 0
KBR1 230158Z 11011KT 08/M00 A2971 RMK A01 T00821003  RH  055%=      5-min Rain = 0
KBR1 230159Z 11011KT 08/M00 A2971 RMK A01 T00811003  RH  055%=      5-min Rain = 0
KBR1 230200Z 11011KT 08/M00 A2971 RMK A01 T00811003  RH  055%=      5-min Rain = 0
KBR1 230201Z 11010KT 08/M00 A2971 RMK A01 T00811003  RH  055%=      5-min Rain = 0
KBR1 230202Z 11011KT 08/M00 A2971 RMK A01 T00811003  RH  055%=      5-min Rain = 0
KBR1 230203Z 11011KT 08/M00 A2971 RMK A01 T00811003  RH  056%=      5-min Rain = 0
KBR1 230204Z 11011KT 08/M00 A2971 RMK A01 T00801003  RH  056%=      5-min Rain = 0
KBR1 230205Z 11011KT 08/M00 A2971 RMK A01 T00801003  RH  056%=      5-min Rain = 0
KBR1 230206Z 11012KT 08/M00 A2971 RMK A01 T00801003  RH  056%=      5-min Rain = 0
KBR1 230207Z 11012KT 08/M00 A2971 RMK A01 T00801003  RH  056%=      5-min Rain = 0
KBR1 230208Z 11011KT 08/M00 A2971 RMK A01 T00801003  RH  056%=      5-min Rain = 0
KBR1 230209Z 11011KT 08/M00 A2971 RMK A01 T00801003  RH  056%=      5-min Rain = 0
KBR1 230210Z 11012KT 08/M00 A2971 RMK A01 T00801003  RH  056%=      5-min Rain = 0
KBR1 230211Z 11015KT 08/M00 A2971 RMK A01 T00801003  RH  056%=      5-min Rain = 0
KBR1 230212Z 11014KT 08/M00 A2971 RMK A01 T00801003  RH  056%=      5-min Rain = 0
KBR1 230213Z 11015G20KT 08/M00 A2971 RMK A01 T00801003  RH  055%=      5-min Rain = 0
KBR1 230214Z 11018KT 08/M00 A2971 RMK A01 T00811003  RH  056%=      5-min Rain = 0
KBR1 230215Z 10017G22KT 08/M00 A2971 RMK A01 T00811003  RH  056%=      5-min Rain = 0
KBR1 230216Z 11018KT 08/00 A2971 RMK A01 T007900-0  RH  057%=      5-min Rain = 0
KBR1 230217Z 10018KT 08/00 A2971 RMK A01 T00760004  RH  060%=      5-min Rain = 0
KBR1 230218Z 10018KT 07/01 A2971 RMK A01 T00730007  RH  063%=      5-min Rain = 0
KBR1 230219Z 10017KT 07/01 A2971 RMK A01 T00720009  RH  064%=      5-min Rain = 0
KBR1 230220Z 10015KT 07/01 A2971 RMK A01 T00700010  RH  066%=      5-min Rain = 0
KBR1 230221Z 10016KT 07/01 A2971 RMK A01 T00680012  RH  067%=      5-min Rain = 0
KBR1 230222Z 11016KT 07/01 A2971 RMK A01 T00670013  RH  069%=      5-min Rain = 0
KBR1 230223Z 10015KT 07/01 A2971 RMK A01 T00650014  RH  070%=      5-min Rain = 0
KBR1 230224Z 10015KT 06/01 A2971 RMK A01 T00640014  RH  070%=      5-min Rain = 0
KBR1 230225Z 10013KT 06/02 A2971 RMK A01 T00630015  RH  071%=      5-min Rain = 0
KBR1 230226Z 10014KT 06/02 A2971 RMK A01 T00620015  RH  072%=      5-min Rain = 0
KBR1 230227Z 10014KT 06/02 A2971 RMK A01 T00610015  RH  072%=      5-min Rain = 0
KBR1 230228Z 10014KT 06/02 A2971 RMK A01 T00600016  RH  073%=      5-min Rain = 0
KBR1 230229Z 10015KT 06/02 A2971 RMK A01 T00590016  RH  074%=      5-min Rain = 0
KBR1 230230Z 10017KT 06/02 A2971 RMK A01 T00580017  RH  075%=      5-min Rain = 0
KBR1 230231Z 11018KT 06/02 A2971 RMK A01 T00580019  RH  076%=      5-min Rain = 0
KBR1 230232Z 11017KT 06/02 A2971 RMK A01 T00570020  RH  077%=      5-min Rain = 0
KBR1 230233Z 11016KT 06/02 A2971 RMK A01 T00570021  RH  077%=      5-min Rain = 0
KBR1 230234Z 10014KT 06/02 A2971 RMK A01 T00570021  RH  078%=      5-min Rain = 0
KBR1 230235Z 10012KT 06/02 A2971 RMK A01 T00560020  RH  078%=      5-min Rain = 0
KBR1 230236Z 10011KT 06/02 A2971 RMK A01 T00550018  RH  077%=      5-min Rain = 0
KBR1 230237Z 10011KT 05/02 A2971 RMK A01 T00530017  RH  078%=      5-min Rain = 0
KBR1 230238Z 10015KT 05/02 A2971 RMK A01 T00520018  RH  078%=      5-min Rain = 0
KBR1 230239Z 10015KT 05/02 A2971 RMK A01 T00520019  RH  079%=      5-min Rain = 0
KBR1 230240Z 10017KT 05/02 A2971 RMK A01 T00520020  RH  080%=      5-min Rain = 0
KBR1 230241Z 11015KT 05/02 A2971 RMK A01 T00530022  RH  080%=      5-min Rain = 0
KBR1 230242Z 11015KT 05/02 A2971 RMK A01 T00520022  RH  081%=      5-min Rain = 0
KBR1 230243Z 10013KT 05/02 A2971 RMK A01 T00520021  RH  080%=      5-min Rain = 0
KBR1 230244Z 10015KT 05/02 A2971 RMK A01 T00520021  RH  080%=      5-min Rain = 0
KBR1 230245Z 10012KT 05/02 A2971 RMK A01 T00510020  RH  081%=      5-min Rain = 0
KBR1 230246Z 10014KT 05/02 A2971 RMK A01 T00500021  RH  081%=      5-min Rain = 0
KBR1 230247Z 10012KT 05/02 A2971 RMK A01 T00500021  RH  082%=      5-min Rain = 0
KBR1 230248Z 11013KT 05/02 A2971 RMK A01 T00490021  RH  082%=      5-min Rain = 0
KBR1 230249Z 10013KT 05/02 A2971 RMK A01 T00490021  RH  082%=      5-min Rain = 0
KBR1 230250Z 10014KT 05/02 A2971 RMK A01 T00480021  RH  083%=      5-min Rain = 0
KBR1 230251Z 11012KT 05/02 A2971 RMK A01 T00480022  RH  083%=      5-min Rain = 0
KBR1 230252Z 11012KT 05/02 A2971 RMK A01 T00480022  RH  083%=      5-min Rain = 0
KBR1 230253Z 10013KT 05/02 A2971 RMK A01 T00470022  RH  083%=      5-min Rain = 0
KBR1 230254Z 10013KT 05/02 A2971 RMK A01 T00470022  RH  084%=      5-min Rain = 0
KBR1 230255Z 10013KT 05/02 A2971 RMK A01 T00470022  RH  084%=      5-min Rain = 0
KBR1 230256Z 11011KT 05/02 A2971 RMK A01 T00460022  RH  084%=      5-min Rain = 0
KBR1 230257Z 10011G16KT 05/02 A2971 RMK A01 T00460022  RH  084%=      5-min Rain = 0
KBR1 230258Z 10013KT 05/02 A2971 RMK A01 T00460021  RH  084%=      5-min Rain = 0
KBR1 230259Z 10012KT 05/02 A2971 RMK A01 T00450022  RH  085%=      5-min Rain = 0
KBR1 230300Z 10012KT 05/02 A2971 RMK A01 T00450022  RH  085%=      5-min Rain = 0
KBR1 230301Z 09010KT 05/02 A2972 RMK A01 T00450021  RH  085%=      5-min Rain = 0
KBR1 230302Z 09011KT 04/02 A2971 RMK A01 T00440020  RH  085%=      5-min Rain = 0
KBR1 230303Z 10011KT 04/02 A2971 RMK A01 T00430021  RH  085%=      5-min Rain = 0
KBR1 230304Z 09012KT 04/02 A2971 RMK A01 T00430021  RH  086%=      5-min Rain = 0
KBR1 230305Z 10012KT 04/02 A2971 RMK A01 T00430021  RH  086%=      5-min Rain = 0
KBR1 230306Z 10013KT 04/02 A2971 RMK A01 T00430022  RH  086%=      5-min Rain = 0
KBR1 230307Z 10014KT 04/02 A2971 RMK A01 T00430022  RH  086%=      5-min Rain = 0
KBR1 230308Z 10014KT 04/02 A2971 RMK A01 T00430023  RH  087%=      5-min Rain = 0
KBR1 230309Z 10013KT 04/02 A2971 RMK A01 T00440023  RH  086%=      5-min Rain = 0
KBR1 230310Z 10014KT 04/02 A2971 RMK A01 T00440023  RH  086%=      5-min Rain = 0
KBR1 230311Z 09014KT 04/02 A2971 RMK A01 T00440023  RH  086%=      5-min Rain = 0
KBR1 230312Z 09013KT 04/02 A2971 RMK A01 T00440023  RH  086%=      5-min Rain = 0
KBR1 230313Z 09013KT 04/02 A2971 RMK A01 T00430022  RH  086%=      5-min Rain = 0
KBR1 230314Z 09014KT 04/02 A2971 RMK A01 T00430023  RH  087%=      5-min Rain = 0
KBR1 230315Z 09012KT 04/02 A2971 RMK A01 T00430023  RH  087%=      5-min Rain = 0
KBR1 230316Z 09013KT 04/02 A2971 RMK A01 T00420022  RH  087%=      5-min Rain = 0
KBR1 230317Z 09014KT 04/02 A2971 RMK A01 T00420022  RH  087%=      5-min Rain = 0
KBR1 230318Z 09013KT 04/02 A2971 RMK A01 T00410022  RH  087%=      5-min Rain = 0
KBR1 230319Z 09011KT 04/02 A2971 RMK A01 T00410022  RH  088%=      5-min Rain = 0
KBR1 230320Z 09011KT 04/02 A2971 RMK A01 T00400021  RH  088%=      5-min Rain = 0
KBR1 230321Z 09012KT 04/02 A2971 RMK A01 T00390021  RH  088%=      5-min Rain = 0
KBR1 230322Z 10012KT 04/02 A297 RMK A01 T00390021  RH  088%=      5-min Rain = 0
KBR1 230323Z 10011KT 04/02 A297 RMK A01 T00390022  RH  089%=      5-min Rain = 0
KBR1 230324Z 10013KT 04/02 A297 RMK A01 T00390022  RH  089%=      5-min Rain = 0
KBR1 230325Z 10012KT 04/02 A297 RMK A01 T00390022  RH  089%=      5-min Rain = 0
KBR1 230326Z 10012KT 04/02 A297 RMK A01 T00390022  RH  089%=      5-min Rain = 0
KBR1 230327Z 09012KT 04/02 A297 RMK A01 T00390022  RH  089%=      5-min Rain = 0
KBR1 230328Z 09012KT 04/02 A297 RMK A01 T00390023  RH  089%=      5-min Rain = 0
KBR1 230329Z 10010KT 04/02 A2971 RMK A01 T00390023  RH  090%=      5-min Rain = 0
KBR1 230330Z 10011KT 04/02 A2971 RMK A01 T00390023  RH  089%=      5-min Rain = 0
KBR1 230331Z 10011KT 04/02 A2971 RMK A01 T00390023  RH  089%=      5-min Rain = 0
KBR1 230332Z 10010KT 04/02 A2971 RMK A01 T00390023  RH  090%=      5-min Rain = 0
KBR1 230333Z 10009KT 04/02 A2971 RMK A01 T00390023  RH  090%=      5-min Rain = 0
KBR1 230334Z 10011KT 04/02 A2971 RMK A01 T00390024  RH  090%=      5-min Rain = 0
KBR1 230335Z 10011KT 04/02 A2971 RMK A01 T00390024  RH  090%=      5-min Rain = 0
KBR1 230336Z 10010KT 04/02 A2971 RMK A01 T00390024  RH  090%=      5-min Rain = 0
KBR1 230337Z 10012KT 04/02 A2971 RMK A01 T00390024  RH  090%=      5-min Rain = 0
KBR1 230338Z 10010KT 04/02 A2971 RMK A01 T00390024  RH  090%=      5-min Rain = 0
KBR1 230339Z 10013KT 04/02 A2971 RMK A01 T00390024  RH  090%=      5-min Rain = 0
KBR1 230340Z 10014KT 04/03 A2971 RMK A01 T00400025  RH  090%=      5-min Rain = 0
KBR1 230341Z 10012KT 04/03 A2971 RMK A01 T00400025  RH  090%=      5-min Rain = 0
KBR1 230342Z 10011KT 04/03 A2971 RMK A01 T00400025  RH  090%=      5-min Rain = 0
KBR1 230343Z 10011KT 04/03 A2971 RMK A01 T00400025  RH  090%=      5-min Rain = 0
KBR1 230344Z 10011KT 04/03 A2971 RMK A01 T00400025  RH  090%=      5-min Rain = 0
KBR1 230345Z 10012KT 04/03 A2971 RMK A01 T00400025  RH  090%=      5-min Rain = 0
KBR1 230346Z 10010KT 04/03 A2971 RMK A01 T00400025  RH  090%=      5-min Rain = 0
KBR1 230347Z 10011KT 04/02 A2971 RMK A01 T00400024  RH  090%=      5-min Rain = 0
KBR1 230348Z 10011KT 04/02 A2971 RMK A01 T00390024  RH  090%=      5-min Rain = 0
KBR1 230349Z 10010KT 04/02 A2971 RMK A01 T00390024  RH  090%=      5-min Rain = 0
KBR1 230350Z 10012KT 04/02 A2971 RMK A01 T00390024  RH  090%=      5-min Rain = 0
KBR1 230351Z 10011KT 04/02 A2971 RMK A01 T00390024  RH  090%=      5-min Rain = 0
KBR1 230352Z 10012KT 04/03 A2971 RMK A01 T00390025  RH  090%=      5-min Rain = 0
KBR1 230353Z 10011KT 04/03 A2971 RMK A01 T00390025  RH  090%=      5-min Rain = 0
KBR1 230354Z 10011KT 04/03 A2971 RMK A01 T00390025  RH  090%=      5-min Rain = 0
KBR1 230355Z 10010KT 04/02 A2971 RMK A01 T00390024  RH  090%=      5-min Rain = 0
KBR1 230356Z 10008KT 04/03 A2972 RMK A01 T00390025  RH  090%=      5-min Rain = 0
KBR1 230357Z 10007KT 04/02 A2972 RMK A01 T00390024  RH  090%=      5-min Rain = 0
KBR1 230358Z 10009KT 04/03 A2972 RMK A01 T00390025  RH  090%=      5-min Rain = 0
KBR1 230359Z 10008KT 04/02 A2972 RMK A01 T00390024  RH  090%=      5-min Rain = 0
KBR1 230400Z 10008KT 04/02 A2972 RMK A01 T00390024  RH  090%=      5-min Rain = 0
KBR1 230401Z 11009KT 04/02 A2972 RMK A01 T00390024  RH  090%=      5-min Rain = 0
KBR1 230402Z 10010KT 04/03 A2972 RMK A01 T00390025  RH  090%=      5-min Rain = 0
KBR1 230403Z 10009KT 04/02 A2972 RMK A01 T00390024  RH  090%=      5-min Rain = 0
KBR1 230404Z 10011KT 04/02 A2972 RMK A01 T00390024  RH  090%=      5-min Rain = 0
KBR1 230405Z 09011KT 04/02 A2972 RMK A01 T00390024  RH  090%=      5-min Rain = 0
KBR1 230406Z 10011KT 04/02 A2972 RMK A01 T00390024  RH  090%=      5-min Rain = 0
KBR1 230407Z 11012KT 04/03 A2972 RMK A01 T00390025  RH  090%=      5-min Rain = 0
KBR1 230408Z 10011KT 04/03 A2972 RMK A01 T00400025  RH  090%=      5-min Rain = 0
KBR1 230409Z 10009KT 04/03 A2972 RMK A01 T00390025  RH  090%=      5-min Rain = 0
KBR1 230410Z 10009KT 04/03 A2972 RMK A01 T00390025  RH  090%=      5-min Rain = 0
KBR1 230411Z 10011KT 04/03 A2972 RMK A01 T00390025  RH  090%=      5-min Rain = 0
KBR1 230412Z 10011KT 04/03 A2972 RMK A01 T00390025  RH  090%=      5-min Rain = 0
KBR1 230413Z 11012KT 04/03 A2972 RMK A01 T00390025  RH  090%=      5-min Rain = 0
KBR1 230414Z 11012KT 04/03 A2973 RMK A01 T00390025  RH  090%=      5-min Rain = 0
KBR1 230415Z 11011KT 04/03 A2973 RMK A01 T00390025  RH  090%=      5-min Rain = 0
KBR1 230416Z 12010KT 04/03 A2973 RMK A01 T00390025  RH  090%=      5-min Rain = 0
KBR1 230417Z 11010KT 04/03 A2972 RMK A01 T00390025  RH  090%=      5-min Rain = 0
KBR1 230418Z 11009KT 04/03 A2972 RMK A01 T00390025  RH  090%=      5-min Rain = 0
KBR1 230419Z 11008KT 04/03 A2972 RMK A01 T00390025  RH  090%=      5-min Rain = 0
KBR1 230420Z 12010KT 04/03 A2972 RMK A01 T00390025  RH  090%=      5-min Rain = 0
KBR1 230421Z 11010KT 04/03 A2972 RMK A01 T00390025  RH  091%=      5-min Rain = 0
KBR1 230422Z 12011KT 04/03 A2972 RMK A01 T00390026  RH  091%=      5-min Rain = 0
KBR1 230423Z 13011KT 04/03 A2973 RMK A01 T00390026  RH  091%=      5-min Rain = 0
KBR1 230424Z 13014KT 04/03 A2973 RMK A01 T00390026  RH  091%=      5-min Rain = 0
KBR1 230425Z 13015KT 04/03 A2974 RMK A01 T00390026  RH  091%=      5-min Rain = 0
KBR1 230426Z 13013KT 04/03 A2974 RMK A01 T00390026  RH  091%=      5-min Rain = 0
KBR1 230427Z 14011KT 04/03 A2974 RMK A01 T00390026  RH  092%=      5-min Rain = 0
KBR1 230428Z 13011KT 04/03 A2974 RMK A01 T00380026  RH  092%=      5-min Rain = 0
KBR1 230429Z 14010KT 04/03 A2974 RMK A01 T00390026  RH  092%=      5-min Rain = 0
KBR1 230430Z 14010KT 04/03 A2974 RMK A01 T00390026  RH  092%=      5-min Rain = 0
KBR1 230431Z 14012KT 04/03 A2974 RMK A01 T00380026  RH  092%=      5-min Rain = 0
KBR1 230432Z 14013KT 04/03 A2974 RMK A01 T00380026  RH  092%=      5-min Rain = 0
KBR1 230433Z 14012KT 04/03 A2974 RMK A01 T00380026  RH  092%=      5-min Rain = 0
KBR1 230434Z 14011KT 04/03 A2974 RMK A01 T00380026  RH  092%=      5-min Rain = 0
KBR1 230435Z 14010KT 04/03 A2974 RMK A01 T00390026  RH  092%=      5-min Rain = 0
KBR1 230436Z 14011KT 04/03 A2974 RMK A01 T00390026  RH  092%=      5-min Rain = 0
KBR1 230437Z 14010KT 04/03 A2974 RMK A01 T00390026  RH  092%=      5-min Rain = 0
KBR1 230438Z 14012KT 04/03 A2974 RMK A01 T00380026  RH  092%=      5-min Rain = 0
KBR1 230439Z 14010KT 04/03 A2974 RMK A01 T00380026  RH  092%=      5-min Rain = 0
KBR1 230440Z 14008KT 04/03 A2974 RMK A01 T00390026  RH  092%=      5-min Rain = 0
KBR1 230441Z 15009KT 04/03 A2974 RMK A01 T00390026  RH  092%=      5-min Rain = 0
KBR1 230442Z 15011KT 04/03 A2974 RMK A01 T00390026  RH  092%=      5-min Rain = 0
KBR1 230443Z 15012KT 04/03 A2974 RMK A01 T00380026  RH  092%=      5-min Rain = 0
KBR1 230444Z 15013KT 04/03 A2975 RMK A01 T00390026  RH  092%=      5-min Rain = 0
KBR1 230445Z 15013KT 04/03 A2975 RMK A01 T00380026  RH  092%=      5-min Rain = 0
KBR1 230446Z 15012KT 04/03 A2975 RMK A01 T00390026  RH  092%=      5-min Rain = 0
KBR1 230447Z 15013KT 04/03 A2975 RMK A01 T00380026  RH  091%=      5-min Rain = 0
KBR1 230448Z 14013KT 04/03 A2975 RMK A01 T00390026  RH  091%=      5-min Rain = 0
KBR1 230449Z 14015KT 04/03 A2975 RMK A01 T00390026  RH  091%=      5-min Rain = 0
KBR1 230450Z 14014KT 04/03 A2975 RMK A01 T00380025  RH  091%=      5-min Rain = 0
KBR1 230451Z 13012KT 04/03 A2975 RMK A01 T00380025  RH  091%=      5-min Rain = 0
KBR1 230452Z 13011KT 04/03 A2975 RMK A01 T00380025  RH  091%=      5-min Rain = 0
KBR1 230453Z 13010KT 04/03 A2975 RMK A01 T00380025  RH  091%=      5-min Rain = 0
KBR1 230454Z 13011KT 04/03 A2974 RMK A01 T00380025  RH  091%=      5-min Rain = 0
KBR1 230455Z 13010KT 04/02 A2975 RMK A01 T00380024  RH  091%=      5-min Rain = 0
KBR1 230456Z 12011KT 04/02 A2975 RMK A01 T00370024  RH  091%=      5-min Rain = 0
KBR1 230457Z 13011KT 04/02 A2975 RMK A01 T00380024  RH  091%=      5-min Rain = 0
KBR1 230458Z 14011KT 04/02 A2975 RMK A01 T00370024  RH  091%=      5-min Rain = 0
KBR1 230459Z 13009KT 04/02 A2975 RMK A01 T00370024  RH  091%=      5-min Rain = 0
KBR1 230500Z 13010KT 04/02 A2974 RMK A01 T00370024  RH  091%=      5-min Rain = 0
KBR1 230501Z 14009KT 04/02 A2974 RMK A01 T00370024  RH  091%=      5-min Rain = 0
KBR1 230502Z 14009KT 04/02 A2974 RMK A01 T00370024  RH  091%=      5-min Rain = 0
KBR1 230503Z 14009KT 04/02 A2974 RMK A01 T00370024  RH  091%=      5-min Rain = 0
KBR1 230504Z 14008KT 04/02 A2974 RMK A01 T00370024  RH  091%=      5-min Rain = 0
KBR1 230505Z 14008KT 04/02 A2974 RMK A01 T00370024  RH  091%=      5-min Rain = 0
KBR1 230506Z 15010KT 04/02 A2974 RMK A01 T00380024  RH  091%=      5-min Rain = 0
KBR1 230507Z 14012KT 04/02 A2974 RMK A01 T00380024  RH  091%=      5-min Rain = 0
KBR1 230508Z 15012KT 04/02 A2975 RMK A01 T00380024  RH  091%=      5-min Rain = 0
KBR1 230509Z 14012KT 04/02 A2974 RMK A01 T00380024  RH  090%=      5-min Rain = 0
KBR1 230510Z 15010KT 04/02 A2974 RMK A01 T00390024  RH  090%=      5-min Rain = 0
KBR1 230511Z 15010KT 04/02 A2974 RMK A01 T00390024  RH  090%=      5-min Rain = 0
KBR1 230512Z 15012KT 04/02 A2974 RMK A01 T00390024  RH  090%=      5-min Rain = 0
KBR1 230513Z 15012KT 04/02 A2975 RMK A01 T00390024  RH  090%=      5-min Rain = 0
KBR1 230514Z 16013KT 04/02 A2975 RMK A01 T00390024  RH  090%=      5-min Rain = 0
KBR1 230515Z 15010KT 04/02 A2975 RMK A01 T00390024  RH  090%=      5-min Rain = 0
KBR1 230516Z 16011KT 04/03 A2975 RMK A01 T00390025  RH  090%=      5-min Rain = 0
KBR1 230517Z 15011KT 04/03 A2975 RMK A01 T00390025  RH  091%=      5-min Rain = 0
KBR1 230518Z 15010KT 04/03 A2975 RMK A01 T00380025  RH  091%=      5-min Rain = 0
KBR1 230519Z 15009KT 04/03 A2975 RMK A01 T00380025  RH  091%=      5-min Rain = 0
KBR1 230520Z 15009KT 04/03 A2975 RMK A01 T00380025  RH  091%=      5-min Rain = 0
KBR1 230521Z 16008KT 04/03 A2974 RMK A01 T00380025  RH  092%=      5-min Rain = 0
KBR1 230522Z 15012KT 04/03 A2974 RMK A01 T00380026  RH  092%=      5-min Rain = 0
KBR1 230523Z 15012KT 04/03 A2974 RMK A01 T00370025  RH  092%=      5-min Rain = 0
KBR1 230524Z 15011KT 04/03 A2974 RMK A01 T00370025  RH  092%=      5-min Rain = 0
KBR1 230525Z 15012KT 04/03 A2974 RMK A01 T00370025  RH  092%=      5-min Rain = 0
KBR1 230526Z 15012KT 04/03 A2974 RMK A01 T00370025  RH  092%=      5-min Rain = 0
KBR1 230527Z 14014KT 04/03 A2973 RMK A01 T00370025  RH  092%=      5-min Rain = 0
KBR1 230528Z 14013KT 04/03 A2973 RMK A01 T00370025  RH  092%=      5-min Rain = 0
KBR1 230529Z 14013KT 04/03 A2973 RMK A01 T00370025  RH  092%=      5-min Rain = 0
KBR1 230530Z 14013KT 04/03 A2973 RMK A01 T00380025  RH  092%=      5-min Rain = 0
KBR1 230531Z 14014KT 04/03 A2973 RMK A01 T00370025  RH  092%=      5-min Rain = 0
KBR1 230532Z 14014KT 04/03 A2972 RMK A01 T00380025  RH  092%=      5-min Rain = 0
KBR1 230533Z 14013KT 04/03 A2972 RMK A01 T00380025  RH  092%=      5-min Rain = 0
KBR1 230534Z 13012KT 04/03 A2972 RMK A01 T00380025  RH  092%=      5-min Rain = 0
KBR1 230535Z 14011KT 04/03 A2972 RMK A01 T00380025  RH  092%=      5-min Rain = 0
KBR1 230536Z 13011KT 04/03 A2971 RMK A01 T00370025  RH  091%=      5-min Rain = 0
KBR1 230537Z 13009KT 04/03 A2971 RMK A01 T00380025  RH  091%=      5-min Rain = 0
KBR1 230538Z 14012KT 04/03 A2972 RMK A01 T00370025  RH  092%=      5-min Rain = 0
KBR1 230539Z 13011KT 04/03 A2972 RMK A01 T00370025  RH  092%=      5-min Rain = 0
KBR1 230540Z 13011KT 04/03 A2971 RMK A01 T00370025  RH  092%=      5-min Rain = 0
KBR1 230541Z 13009KT 04/03 A2971 RMK A01 T00370025  RH  092%=      5-min Rain = 0
KBR1 230542Z 13010KT 04/03 A2971 RMK A01 T00370025  RH  092%=      5-min Rain = 0
KBR1 230543Z 12011KT 04/03 A2971 RMK A01 T00370025  RH  092%=      5-min Rain = 0
KBR1 230544Z 12012KT 04/03 A297 RMK A01 T00370025  RH  092%=      5-min Rain = 0
KBR1 230545Z 12011KT 04/03 A2969 RMK A01 T00370025  RH  092%=      5-min Rain = 0
KBR1 230546Z 11012KT 04/03 A2969 RMK A01 T00360025  RH  093%=      5-min Rain = 0
KBR1 230547Z 11012KT 04/03 A2968 RMK A01 T00360025  RH  093%=      5-min Rain = 0
KBR1 230548Z 11012KT 04/03 A2968 RMK A01 T00360025  RH  093%=      5-min Rain = 0
KBR1 230549Z 12012KT 04/03 A2968 RMK A01 T00360025  RH  093%=      5-min Rain = 0
KBR1 230550Z 12012KT 04/03 A2968 RMK A01 T00360026  RH  093%=      5-min Rain = 0
KBR1 230551Z 12012KT 04/03 A2969 RMK A01 T00350025  RH  093%=      5-min Rain = 0
KBR1 230552Z 12011KT 04/03 A2969 RMK A01 T00350026  RH  093%=      5-min Rain = 0
KBR1 230553Z 12011KT 04/03 A2969 RMK A01 T00350026  RH  094%=      5-min Rain = 0
KBR1 230554Z 11012KT 04/03 A2968 RMK A01 T00350026  RH  094%=      5-min Rain = 0
KBR1 230555Z 11010KT 04/03 A2968 RMK A01 T00350025  RH  094%=      5-min Rain = 0
KBR1 230556Z 11011KT 03/03 A2968 RMK A01 T00340025  RH  094%=      5-min Rain = 0
KBR1 230557Z 11009KT 03/03 A2967 RMK A01 T00340025  RH  094%=      5-min Rain = 0
KBR1 230558Z 10010KT 03/03 A2967 RMK A01 T00340025  RH  094%=      5-min Rain = 0
KBR1 230559Z 10011KT 03/03 A2967 RMK A01 T00340025  RH  094%=      5-min Rain = 0

Page generated in 0.2021 seconds.